<?xml version="1.0" encoding="UTF-8" standalone="no" ?>
<gpx xmlns="http://www.topografix.com/GPX/1/1" xmlns:xsi="http://www.w3.org/2001/XMLSchema-instance" xsi:schemaLocation="http://www.topografix.com/GPX/1/1 http://www.topografix.com/GPX/1/1/gpx.xsd" version="1.1" creator="VisuGPX - https://www.visugpx.com">
  <metadata>
    <name>Ventouret</name>
    <desc><![CDATA[faite en juin 2022, modifier la trace au départ Pb de GPS]]></desc>
  </metadata>
  <trk>
    <name><![CDATA[2022-06-02 16:28:29]]></name>
    <extensions>
      <line xmlns="http://www.topografix.com/GPX/gpx_style/0/2">
        <color>0000FF</color>
        <width>4</width>
      </line>
    </extensions>
    <trkseg>
      <trkpt lat="44.13041" lon="5.41233">
        <ele>766.7</ele>
        <time>2022-06-02T06:53:27Z</time>
      </trkpt>
      <trkpt lat="44.13042" lon="5.41233">
        <ele>766.7</ele>
        <time>2022-06-02T06:53:29Z</time>
      </trkpt>
      <trkpt lat="44.13708" lon="5.39951">
        <ele>970.4</ele>
        <time>2022-06-02T07:25:03Z</time>
      </trkpt>
      <trkpt lat="44.13708" lon="5.39952">
        <ele>970.1</ele>
        <time>2022-06-02T07:25:06Z</time>
      </trkpt>
      <trkpt lat="44.14957" lon="5.40427">
        <ele>1130.4</ele>
        <time>2022-06-02T08:23:29Z</time>
      </trkpt>
      <trkpt lat="44.14954" lon="5.40425">
        <ele>1129.6</ele>
        <time>2022-06-02T08:24:07Z</time>
      </trkpt>
      <trkpt lat="44.14954" lon="5.4042">
        <ele>1129.7</ele>
        <time>2022-06-02T08:24:57Z</time>
      </trkpt>
      <trkpt lat="44.14958" lon="5.40421">
        <ele>1130.8</ele>
        <time>2022-06-02T08:25:34Z</time>
      </trkpt>
      <trkpt lat="44.14958" lon="5.40419">
        <ele>1130.9</ele>
        <time>2022-06-02T08:26:19Z</time>
      </trkpt>
      <trkpt lat="44.14957" lon="5.40427">
        <ele>1130.4</ele>
        <time>2022-06-02T08:26:37Z</time>
      </trkpt>
      <trkpt lat="44.14959" lon="5.40451">
        <ele>1130</ele>
        <time>2022-06-02T08:26:53Z</time>
      </trkpt>
      <trkpt lat="44.14962" lon="5.40456">
        <ele>1130.2</ele>
        <time>2022-06-02T08:26:58Z</time>
      </trkpt>
      <trkpt lat="44.14974" lon="5.40475">
        <ele>1130.8</ele>
        <time>2022-06-02T08:27:15Z</time>
      </trkpt>
      <trkpt lat="44.14986" lon="5.40496">
        <ele>1128.8</ele>
        <time>2022-06-02T08:27:31Z</time>
      </trkpt>
      <trkpt lat="44.15002" lon="5.40506">
        <ele>1129.7</ele>
        <time>2022-06-02T08:27:50Z</time>
      </trkpt>
      <trkpt lat="44.15005" lon="5.40508">
        <ele>1129.6</ele>
        <time>2022-06-02T08:27:54Z</time>
      </trkpt>
      <trkpt lat="44.1501" lon="5.4051">
        <ele>1129.9</ele>
        <time>2022-06-02T08:27:59Z</time>
      </trkpt>
      <trkpt lat="44.15023" lon="5.40515">
        <ele>1130.3</ele>
        <time>2022-06-02T08:28:14Z</time>
      </trkpt>
      <trkpt lat="44.15039" lon="5.40529">
        <ele>1128</ele>
        <time>2022-06-02T08:28:29Z</time>
      </trkpt>
      <trkpt lat="44.15049" lon="5.40546">
        <ele>1125.2</ele>
        <time>2022-06-02T08:28:45Z</time>
      </trkpt>
      <trkpt lat="44.15053" lon="5.40544">
        <ele>1126.7</ele>
        <time>2022-06-02T08:29:14Z</time>
      </trkpt>
      <trkpt lat="44.15055" lon="5.40541">
        <ele>1128.1</ele>
        <time>2022-06-02T08:29:26Z</time>
      </trkpt>
      <trkpt lat="44.15057" lon="5.40532">
        <ele>1131.1</ele>
        <time>2022-06-02T08:29:44Z</time>
      </trkpt>
      <trkpt lat="44.1506" lon="5.40523">
        <ele>1134.5</ele>
        <time>2022-06-02T08:30:03Z</time>
      </trkpt>
      <trkpt lat="44.15064" lon="5.40516">
        <ele>1137.5</ele>
        <time>2022-06-02T08:30:24Z</time>
      </trkpt>
      <trkpt lat="44.15069" lon="5.40511">
        <ele>1140</ele>
        <time>2022-06-02T08:30:42Z</time>
      </trkpt>
      <trkpt lat="44.15072" lon="5.40506">
        <ele>1142.1</ele>
        <time>2022-06-02T08:31:03Z</time>
      </trkpt>
      <trkpt lat="44.1507" lon="5.40496">
        <ele>1144.8</ele>
        <time>2022-06-02T08:31:30Z</time>
      </trkpt>
      <trkpt lat="44.15078" lon="5.40494">
        <ele>1146.8</ele>
        <time>2022-06-02T08:31:52Z</time>
      </trkpt>
      <trkpt lat="44.15083" lon="5.40488">
        <ele>1149.4</ele>
        <time>2022-06-02T08:32:14Z</time>
      </trkpt>
      <trkpt lat="44.15086" lon="5.40479">
        <ele>1152.6</ele>
        <time>2022-06-02T08:32:33Z</time>
      </trkpt>
      <trkpt lat="44.15092" lon="5.4047">
        <ele>1156.3</ele>
        <time>2022-06-02T08:32:53Z</time>
      </trkpt>
      <trkpt lat="44.15098" lon="5.40463">
        <ele>1159</ele>
        <time>2022-06-02T08:33:13Z</time>
      </trkpt>
      <trkpt lat="44.15101" lon="5.4046">
        <ele>1160.2</ele>
        <time>2022-06-02T08:33:32Z</time>
      </trkpt>
      <trkpt lat="44.15103" lon="5.40461">
        <ele>1160.4</ele>
        <time>2022-06-02T08:33:57Z</time>
      </trkpt>
      <trkpt lat="44.15096" lon="5.4045">
        <ele>1161.2</ele>
        <time>2022-06-02T08:34:27Z</time>
      </trkpt>
      <trkpt lat="44.15101" lon="5.40448">
        <ele>1162.5</ele>
        <time>2022-06-02T08:34:50Z</time>
      </trkpt>
      <trkpt lat="44.15102" lon="5.40448">
        <ele>1162.7</ele>
        <time>2022-06-02T08:34:53Z</time>
      </trkpt>
      <trkpt lat="44.15103" lon="5.4045">
        <ele>1162.5</ele>
        <time>2022-06-02T08:34:55Z</time>
      </trkpt>
      <trkpt lat="44.15108" lon="5.4045">
        <ele>1163.4</ele>
        <time>2022-06-02T08:35:19Z</time>
      </trkpt>
      <trkpt lat="44.15113" lon="5.40444">
        <ele>1165.4</ele>
        <time>2022-06-02T08:35:38Z</time>
      </trkpt>
      <trkpt lat="44.15118" lon="5.40438">
        <ele>1167.2</ele>
        <time>2022-06-02T08:35:55Z</time>
      </trkpt>
      <trkpt lat="44.15119" lon="5.40433">
        <ele>1168.2</ele>
        <time>2022-06-02T08:36:14Z</time>
      </trkpt>
      <trkpt lat="44.15125" lon="5.40416">
        <ele>1172.1</ele>
        <time>2022-06-02T08:36:37Z</time>
      </trkpt>
      <trkpt lat="44.15132" lon="5.40403">
        <ele>1175</ele>
        <time>2022-06-02T08:36:57Z</time>
      </trkpt>
      <trkpt lat="44.15141" lon="5.40391">
        <ele>1178.2</ele>
        <time>2022-06-02T08:37:18Z</time>
      </trkpt>
      <trkpt lat="44.15148" lon="5.40377">
        <ele>1180.8</ele>
        <time>2022-06-02T08:37:39Z</time>
      </trkpt>
      <trkpt lat="44.15156" lon="5.40363">
        <ele>1183.6</ele>
        <time>2022-06-02T08:38:01Z</time>
      </trkpt>
      <trkpt lat="44.15161" lon="5.40354">
        <ele>1185.3</ele>
        <time>2022-06-02T08:38:16Z</time>
      </trkpt>
      <trkpt lat="44.15169" lon="5.4034">
        <ele>1188</ele>
        <time>2022-06-02T08:38:36Z</time>
      </trkpt>
      <trkpt lat="44.15182" lon="5.40328">
        <ele>1191</ele>
        <time>2022-06-02T08:38:57Z</time>
      </trkpt>
      <trkpt lat="44.15193" lon="5.40317">
        <ele>1193.3</ele>
        <time>2022-06-02T08:39:15Z</time>
      </trkpt>
      <trkpt lat="44.15201" lon="5.40303">
        <ele>1195.5</ele>
        <time>2022-06-02T08:39:32Z</time>
      </trkpt>
      <trkpt lat="44.15209" lon="5.4029">
        <ele>1197.4</ele>
        <time>2022-06-02T08:39:49Z</time>
      </trkpt>
      <trkpt lat="44.15218" lon="5.40276">
        <ele>1199.2</ele>
        <time>2022-06-02T08:40:09Z</time>
      </trkpt>
      <trkpt lat="44.15228" lon="5.40262">
        <ele>1201</ele>
        <time>2022-06-02T08:40:27Z</time>
      </trkpt>
      <trkpt lat="44.15241" lon="5.40249">
        <ele>1203.4</ele>
        <time>2022-06-02T08:40:48Z</time>
      </trkpt>
      <trkpt lat="44.15244" lon="5.40234">
        <ele>1204</ele>
        <time>2022-06-02T08:41:04Z</time>
      </trkpt>
      <trkpt lat="44.15254" lon="5.40214">
        <ele>1205.6</ele>
        <time>2022-06-02T08:41:25Z</time>
      </trkpt>
      <trkpt lat="44.15266" lon="5.40215">
        <ele>1207.5</ele>
        <time>2022-06-02T08:41:41Z</time>
      </trkpt>
      <trkpt lat="44.15277" lon="5.40213">
        <ele>1209.2</ele>
        <time>2022-06-02T08:41:58Z</time>
      </trkpt>
      <trkpt lat="44.15281" lon="5.40212">
        <ele>1209.7</ele>
        <time>2022-06-02T08:42:15Z</time>
      </trkpt>
      <trkpt lat="44.15282" lon="5.4021">
        <ele>1209.8</ele>
        <time>2022-06-02T08:43:20Z</time>
      </trkpt>
      <trkpt lat="44.15289" lon="5.40206">
        <ele>1210.6</ele>
        <time>2022-06-02T08:43:36Z</time>
      </trkpt>
      <trkpt lat="44.15286" lon="5.40203">
        <ele>1210.4</ele>
        <time>2022-06-02T08:43:55Z</time>
      </trkpt>
      <trkpt lat="44.15287" lon="5.40201">
        <ele>1210.5</ele>
        <time>2022-06-02T08:44:10Z</time>
      </trkpt>
      <trkpt lat="44.15281" lon="5.40199">
        <ele>1210.1</ele>
        <time>2022-06-02T08:44:41Z</time>
      </trkpt>
      <trkpt lat="44.15283" lon="5.40199">
        <ele>1210.2</ele>
        <time>2022-06-02T08:45:07Z</time>
      </trkpt>
      <trkpt lat="44.15291" lon="5.40198">
        <ele>1210.9</ele>
        <time>2022-06-02T08:45:19Z</time>
      </trkpt>
      <trkpt lat="44.15296" lon="5.40207">
        <ele>1211.2</ele>
        <time>2022-06-02T08:45:31Z</time>
      </trkpt>
      <trkpt lat="44.15296" lon="5.40213">
        <ele>1211.1</ele>
        <time>2022-06-02T08:45:35Z</time>
      </trkpt>
      <trkpt lat="44.15297" lon="5.40221">
        <ele>1211.1</ele>
        <time>2022-06-02T08:45:49Z</time>
      </trkpt>
      <trkpt lat="44.15297" lon="5.40224">
        <ele>1211.1</ele>
        <time>2022-06-02T08:45:51Z</time>
      </trkpt>
      <trkpt lat="44.15299" lon="5.40251">
        <ele>1211.3</ele>
        <time>2022-06-02T08:46:10Z</time>
      </trkpt>
      <trkpt lat="44.15303" lon="5.40265">
        <ele>1212.2</ele>
        <time>2022-06-02T08:46:22Z</time>
      </trkpt>
      <trkpt lat="44.1531" lon="5.40285">
        <ele>1213</ele>
        <time>2022-06-02T08:46:41Z</time>
      </trkpt>
      <trkpt lat="44.15312" lon="5.40304">
        <ele>1213</ele>
        <time>2022-06-02T08:46:54Z</time>
      </trkpt>
      <trkpt lat="44.15314" lon="5.40316">
        <ele>1212.4</ele>
        <time>2022-06-02T08:47:06Z</time>
      </trkpt>
      <trkpt lat="44.15318" lon="5.40323">
        <ele>1212</ele>
        <time>2022-06-02T08:47:21Z</time>
      </trkpt>
      <trkpt lat="44.15323" lon="5.40334">
        <ele>1211.6</ele>
        <time>2022-06-02T08:47:38Z</time>
      </trkpt>
      <trkpt lat="44.15315" lon="5.40356">
        <ele>1210.5</ele>
        <time>2022-06-02T08:47:53Z</time>
      </trkpt>
      <trkpt lat="44.15299" lon="5.40366">
        <ele>1208.7</ele>
        <time>2022-06-02T08:48:11Z</time>
      </trkpt>
      <trkpt lat="44.15293" lon="5.40372">
        <ele>1207.4</ele>
        <time>2022-06-02T08:48:27Z</time>
      </trkpt>
      <trkpt lat="44.15293" lon="5.40396">
        <ele>1205.7</ele>
        <time>2022-06-02T08:48:50Z</time>
      </trkpt>
      <trkpt lat="44.15295" lon="5.40422">
        <ele>1203.7</ele>
        <time>2022-06-02T08:49:09Z</time>
      </trkpt>
      <trkpt lat="44.15292" lon="5.40444">
        <ele>1200.1</ele>
        <time>2022-06-02T08:49:28Z</time>
      </trkpt>
      <trkpt lat="44.15292" lon="5.40459">
        <ele>1196.6</ele>
        <time>2022-06-02T08:49:45Z</time>
      </trkpt>
      <trkpt lat="44.15295" lon="5.40468">
        <ele>1194.6</ele>
        <time>2022-06-02T08:50:01Z</time>
      </trkpt>
      <trkpt lat="44.15295" lon="5.40476">
        <ele>1192.5</ele>
        <time>2022-06-02T08:50:15Z</time>
      </trkpt>
      <trkpt lat="44.15284" lon="5.40479">
        <ele>1191.3</ele>
        <time>2022-06-02T08:50:34Z</time>
      </trkpt>
      <trkpt lat="44.15282" lon="5.40479">
        <ele>1191.2</ele>
        <time>2022-06-02T08:50:37Z</time>
      </trkpt>
      <trkpt lat="44.15274" lon="5.40493">
        <ele>1186.7</ele>
        <time>2022-06-02T08:50:57Z</time>
      </trkpt>
      <trkpt lat="44.15271" lon="5.40501">
        <ele>1184.2</ele>
        <time>2022-06-02T08:51:14Z</time>
      </trkpt>
      <trkpt lat="44.15263" lon="5.40504">
        <ele>1182.8</ele>
        <time>2022-06-02T08:51:32Z</time>
      </trkpt>
      <trkpt lat="44.15258" lon="5.40505">
        <ele>1182.1</ele>
        <time>2022-06-02T08:51:52Z</time>
      </trkpt>
      <trkpt lat="44.15261" lon="5.40512">
        <ele>1180.3</ele>
        <time>2022-06-02T08:52:12Z</time>
      </trkpt>
      <trkpt lat="44.15266" lon="5.40518">
        <ele>1179</ele>
        <time>2022-06-02T08:52:36Z</time>
      </trkpt>
      <trkpt lat="44.15266" lon="5.40512">
        <ele>1180.7</ele>
        <time>2022-06-02T08:53:16Z</time>
      </trkpt>
      <trkpt lat="44.15253" lon="5.40501">
        <ele>1182.9</ele>
        <time>2022-06-02T08:53:47Z</time>
      </trkpt>
      <trkpt lat="44.15256" lon="5.40504">
        <ele>1182.3</ele>
        <time>2022-06-02T08:54:08Z</time>
      </trkpt>
      <trkpt lat="44.15259" lon="5.40511">
        <ele>1180.5</ele>
        <time>2022-06-02T08:54:37Z</time>
      </trkpt>
      <trkpt lat="44.15259" lon="5.40504">
        <ele>1182.5</ele>
        <time>2022-06-02T08:54:54Z</time>
      </trkpt>
      <trkpt lat="44.15258" lon="5.40504">
        <ele>1182.4</ele>
        <time>2022-06-02T08:55:21Z</time>
      </trkpt>
      <trkpt lat="44.1526" lon="5.40501">
        <ele>1183.4</ele>
        <time>2022-06-02T08:55:55Z</time>
      </trkpt>
      <trkpt lat="44.15257" lon="5.40501">
        <ele>1183.2</ele>
        <time>2022-06-02T08:56:28Z</time>
      </trkpt>
      <trkpt lat="44.15257" lon="5.40499">
        <ele>1183.7</ele>
        <time>2022-06-02T08:57:08Z</time>
      </trkpt>
      <trkpt lat="44.15256" lon="5.40501">
        <ele>1183.1</ele>
        <time>2022-06-02T08:57:41Z</time>
      </trkpt>
      <trkpt lat="44.15261" lon="5.40502">
        <ele>1183.2</ele>
        <time>2022-06-02T08:58:12Z</time>
      </trkpt>
      <trkpt lat="44.15266" lon="5.40502">
        <ele>1183.6</ele>
        <time>2022-06-02T08:58:32Z</time>
      </trkpt>
      <trkpt lat="44.15265" lon="5.405">
        <ele>1184.1</ele>
        <time>2022-06-02T08:58:55Z</time>
      </trkpt>
      <trkpt lat="44.15267" lon="5.40489">
        <ele>1187.1</ele>
        <time>2022-06-02T08:59:33Z</time>
      </trkpt>
      <trkpt lat="44.15274" lon="5.40481">
        <ele>1190</ele>
        <time>2022-06-02T08:59:49Z</time>
      </trkpt>
      <trkpt lat="44.15287" lon="5.40483">
        <ele>1190.2</ele>
        <time>2022-06-02T09:00:08Z</time>
      </trkpt>
      <trkpt lat="44.15292" lon="5.40467">
        <ele>1194.7</ele>
        <time>2022-06-02T09:00:29Z</time>
      </trkpt>
      <trkpt lat="44.15288" lon="5.40457">
        <ele>1196.9</ele>
        <time>2022-06-02T09:00:40Z</time>
      </trkpt>
      <trkpt lat="44.15288" lon="5.4044">
        <ele>1200.3</ele>
        <time>2022-06-02T09:00:59Z</time>
      </trkpt>
      <trkpt lat="44.15289" lon="5.40433">
        <ele>1201.4</ele>
        <time>2022-06-02T09:01:17Z</time>
      </trkpt>
      <trkpt lat="44.15288" lon="5.40426">
        <ele>1202.2</ele>
        <time>2022-06-02T09:01:36Z</time>
      </trkpt>
      <trkpt lat="44.15288" lon="5.40415">
        <ele>1203.6</ele>
        <time>2022-06-02T09:01:51Z</time>
      </trkpt>
      <trkpt lat="44.15286" lon="5.40404">
        <ele>1204.1</ele>
        <time>2022-06-02T09:02:03Z</time>
      </trkpt>
      <trkpt lat="44.15285" lon="5.40389">
        <ele>1205</ele>
        <time>2022-06-02T09:02:21Z</time>
      </trkpt>
      <trkpt lat="44.15284" lon="5.40369">
        <ele>1206.3</ele>
        <time>2022-06-02T09:02:38Z</time>
      </trkpt>
      <trkpt lat="44.15286" lon="5.40368">
        <ele>1206.7</ele>
        <time>2022-06-02T09:02:40Z</time>
      </trkpt>
      <trkpt lat="44.15287" lon="5.40358">
        <ele>1207.5</ele>
        <time>2022-06-02T09:02:55Z</time>
      </trkpt>
      <trkpt lat="44.15295" lon="5.40362">
        <ele>1208.4</ele>
        <time>2022-06-02T09:03:22Z</time>
      </trkpt>
      <trkpt lat="44.15296" lon="5.40365">
        <ele>1208.3</ele>
        <time>2022-06-02T09:03:50Z</time>
      </trkpt>
      <trkpt lat="44.15297" lon="5.40361">
        <ele>1208.8</ele>
        <time>2022-06-02T09:04:23Z</time>
      </trkpt>
      <trkpt lat="44.15299" lon="5.40353">
        <ele>1209.4</ele>
        <time>2022-06-02T09:04:39Z</time>
      </trkpt>
      <trkpt lat="44.15304" lon="5.40354">
        <ele>1210</ele>
        <time>2022-06-02T09:04:56Z</time>
      </trkpt>
      <trkpt lat="44.1531" lon="5.40344">
        <ele>1210.8</ele>
        <time>2022-06-02T09:05:12Z</time>
      </trkpt>
      <trkpt lat="44.1532" lon="5.40321">
        <ele>1212.2</ele>
        <time>2022-06-02T09:05:33Z</time>
      </trkpt>
      <trkpt lat="44.15319" lon="5.40315">
        <ele>1212.5</ele>
        <time>2022-06-02T09:05:50Z</time>
      </trkpt>
      <trkpt lat="44.15317" lon="5.40296">
        <ele>1213</ele>
        <time>2022-06-02T09:06:09Z</time>
      </trkpt>
      <trkpt lat="44.15312" lon="5.40285">
        <ele>1213</ele>
        <time>2022-06-02T09:06:28Z</time>
      </trkpt>
      <trkpt lat="44.15308" lon="5.40278">
        <ele>1213</ele>
        <time>2022-06-02T09:06:39Z</time>
      </trkpt>
      <trkpt lat="44.153" lon="5.40261">
        <ele>1211.7</ele>
        <time>2022-06-02T09:06:55Z</time>
      </trkpt>
      <trkpt lat="44.15295" lon="5.40251">
        <ele>1210.9</ele>
        <time>2022-06-02T09:07:04Z</time>
      </trkpt>
      <trkpt lat="44.1529" lon="5.40229">
        <ele>1210.3</ele>
        <time>2022-06-02T09:07:21Z</time>
      </trkpt>
      <trkpt lat="44.15289" lon="5.40211">
        <ele>1210.5</ele>
        <time>2022-06-02T09:07:37Z</time>
      </trkpt>
      <trkpt lat="44.15292" lon="5.40206">
        <ele>1210.8</ele>
        <time>2022-06-02T09:07:55Z</time>
      </trkpt>
      <trkpt lat="44.15291" lon="5.40185">
        <ele>1210.6</ele>
        <time>2022-06-02T09:08:11Z</time>
      </trkpt>
      <trkpt lat="44.1529" lon="5.40172">
        <ele>1210.1</ele>
        <time>2022-06-02T09:08:24Z</time>
      </trkpt>
      <trkpt lat="44.15291" lon="5.40157">
        <ele>1209.8</ele>
        <time>2022-06-02T09:08:38Z</time>
      </trkpt>
      <trkpt lat="44.15287" lon="5.40141">
        <ele>1209.4</ele>
        <time>2022-06-02T09:08:50Z</time>
      </trkpt>
      <trkpt lat="44.15281" lon="5.40122">
        <ele>1207.8</ele>
        <time>2022-06-02T09:09:06Z</time>
      </trkpt>
      <trkpt lat="44.15274" lon="5.40091">
        <ele>1205.8</ele>
        <time>2022-06-02T09:09:30Z</time>
      </trkpt>
      <trkpt lat="44.15271" lon="5.40068">
        <ele>1204.7</ele>
        <time>2022-06-02T09:09:51Z</time>
      </trkpt>
      <trkpt lat="44.15264" lon="5.40041">
        <ele>1203</ele>
        <time>2022-06-02T09:10:10Z</time>
      </trkpt>
      <trkpt lat="44.15258" lon="5.40016">
        <ele>1202.6</ele>
        <time>2022-06-02T09:10:27Z</time>
      </trkpt>
      <trkpt lat="44.15246" lon="5.39991">
        <ele>1202.8</ele>
        <time>2022-06-02T09:10:50Z</time>
      </trkpt>
      <trkpt lat="44.15249" lon="5.39973">
        <ele>1203.9</ele>
        <time>2022-06-02T09:11:10Z</time>
      </trkpt>
      <trkpt lat="44.15252" lon="5.3995">
        <ele>1207</ele>
        <time>2022-06-02T09:11:30Z</time>
      </trkpt>
      <trkpt lat="44.15251" lon="5.39932">
        <ele>1210.1</ele>
        <time>2022-06-02T09:11:51Z</time>
      </trkpt>
      <trkpt lat="44.15251" lon="5.3992">
        <ele>1212.2</ele>
        <time>2022-06-02T09:12:11Z</time>
      </trkpt>
      <trkpt lat="44.15248" lon="5.39902">
        <ele>1215.5</ele>
        <time>2022-06-02T09:12:36Z</time>
      </trkpt>
      <trkpt lat="44.15249" lon="5.399">
        <ele>1215.9</ele>
        <time>2022-06-02T09:12:42Z</time>
      </trkpt>
      <trkpt lat="44.15246" lon="5.39877">
        <ele>1220.1</ele>
        <time>2022-06-02T09:13:05Z</time>
      </trkpt>
      <trkpt lat="44.15242" lon="5.39862">
        <ele>1222.8</ele>
        <time>2022-06-02T09:13:25Z</time>
      </trkpt>
      <trkpt lat="44.15241" lon="5.39851">
        <ele>1225.1</ele>
        <time>2022-06-02T09:13:43Z</time>
      </trkpt>
      <trkpt lat="44.15237" lon="5.39835">
        <ele>1228.6</ele>
        <time>2022-06-02T09:14:04Z</time>
      </trkpt>
      <trkpt lat="44.15235" lon="5.39824">
        <ele>1230.8</ele>
        <time>2022-06-02T09:14:20Z</time>
      </trkpt>
      <trkpt lat="44.15232" lon="5.39807">
        <ele>1234.3</ele>
        <time>2022-06-02T09:14:41Z</time>
      </trkpt>
      <trkpt lat="44.15226" lon="5.39795">
        <ele>1237.6</ele>
        <time>2022-06-02T09:15:02Z</time>
      </trkpt>
      <trkpt lat="44.1522" lon="5.39781">
        <ele>1241.2</ele>
        <time>2022-06-02T09:15:23Z</time>
      </trkpt>
      <trkpt lat="44.15218" lon="5.39766">
        <ele>1244.5</ele>
        <time>2022-06-02T09:15:43Z</time>
      </trkpt>
      <trkpt lat="44.15216" lon="5.39754">
        <ele>1247.1</ele>
        <time>2022-06-02T09:16:01Z</time>
      </trkpt>
      <trkpt lat="44.1521" lon="5.39739">
        <ele>1250.8</ele>
        <time>2022-06-02T09:16:24Z</time>
      </trkpt>
      <trkpt lat="44.15208" lon="5.39726">
        <ele>1254</ele>
        <time>2022-06-02T09:16:42Z</time>
      </trkpt>
      <trkpt lat="44.15206" lon="5.39715">
        <ele>1256.6</ele>
        <time>2022-06-02T09:16:59Z</time>
      </trkpt>
      <trkpt lat="44.15203" lon="5.397">
        <ele>1259.8</ele>
        <time>2022-06-02T09:17:20Z</time>
      </trkpt>
      <trkpt lat="44.15205" lon="5.39696">
        <ele>1260.7</ele>
        <time>2022-06-02T09:17:38Z</time>
      </trkpt>
      <trkpt lat="44.15205" lon="5.39683">
        <ele>1263.1</ele>
        <time>2022-06-02T09:17:54Z</time>
      </trkpt>
      <trkpt lat="44.15202" lon="5.39669">
        <ele>1265.6</ele>
        <time>2022-06-02T09:18:13Z</time>
      </trkpt>
      <trkpt lat="44.15203" lon="5.39655">
        <ele>1267.7</ele>
        <time>2022-06-02T09:18:32Z</time>
      </trkpt>
      <trkpt lat="44.15201" lon="5.39639">
        <ele>1270</ele>
        <time>2022-06-02T09:18:50Z</time>
      </trkpt>
      <trkpt lat="44.15201" lon="5.39625">
        <ele>1272</ele>
        <time>2022-06-02T09:19:05Z</time>
      </trkpt>
      <trkpt lat="44.15202" lon="5.39612">
        <ele>1273.9</ele>
        <time>2022-06-02T09:19:28Z</time>
      </trkpt>
      <trkpt lat="44.15201" lon="5.39599">
        <ele>1275.7</ele>
        <time>2022-06-02T09:19:55Z</time>
      </trkpt>
      <trkpt lat="44.15203" lon="5.39584">
        <ele>1277.9</ele>
        <time>2022-06-02T09:20:16Z</time>
      </trkpt>
      <trkpt lat="44.15206" lon="5.39567">
        <ele>1280.6</ele>
        <time>2022-06-02T09:20:35Z</time>
      </trkpt>
      <trkpt lat="44.15214" lon="5.39549">
        <ele>1283.6</ele>
        <time>2022-06-02T09:20:55Z</time>
      </trkpt>
      <trkpt lat="44.1522" lon="5.3953">
        <ele>1286.6</ele>
        <time>2022-06-02T09:21:16Z</time>
      </trkpt>
      <trkpt lat="44.15226" lon="5.39511">
        <ele>1289.4</ele>
        <time>2022-06-02T09:21:36Z</time>
      </trkpt>
      <trkpt lat="44.15229" lon="5.39495">
        <ele>1291.4</ele>
        <time>2022-06-02T09:21:55Z</time>
      </trkpt>
      <trkpt lat="44.15241" lon="5.39479">
        <ele>1293</ele>
        <time>2022-06-02T09:22:17Z</time>
      </trkpt>
      <trkpt lat="44.15247" lon="5.3947">
        <ele>1294.1</ele>
        <time>2022-06-02T09:22:33Z</time>
      </trkpt>
      <trkpt lat="44.15258" lon="5.39449">
        <ele>1295.1</ele>
        <time>2022-06-02T09:22:53Z</time>
      </trkpt>
      <trkpt lat="44.15265" lon="5.39443">
        <ele>1295</ele>
        <time>2022-06-02T09:23:13Z</time>
      </trkpt>
      <trkpt lat="44.15263" lon="5.39444">
        <ele>1295.1</ele>
        <time>2022-06-02T09:23:52Z</time>
      </trkpt>
      <trkpt lat="44.15262" lon="5.39435">
        <ele>1295.4</ele>
        <time>2022-06-02T09:24:08Z</time>
      </trkpt>
      <trkpt lat="44.15258" lon="5.39419">
        <ele>1296</ele>
        <time>2022-06-02T09:24:28Z</time>
      </trkpt>
      <trkpt lat="44.15254" lon="5.39415">
        <ele>1296.1</ele>
        <time>2022-06-02T09:24:44Z</time>
      </trkpt>
      <trkpt lat="44.15259" lon="5.39423">
        <ele>1295.9</ele>
        <time>2022-06-02T09:25:29Z</time>
      </trkpt>
      <trkpt lat="44.15255" lon="5.39423">
        <ele>1295.9</ele>
        <time>2022-06-02T09:25:47Z</time>
      </trkpt>
      <trkpt lat="44.15258" lon="5.39428">
        <ele>1295.8</ele>
        <time>2022-06-02T09:26:26Z</time>
      </trkpt>
      <trkpt lat="44.15257" lon="5.39429">
        <ele>1295.8</ele>
        <time>2022-06-02T09:27:06Z</time>
      </trkpt>
      <trkpt lat="44.15256" lon="5.39424">
        <ele>1295.9</ele>
        <time>2022-06-02T09:27:41Z</time>
      </trkpt>
      <trkpt lat="44.15257" lon="5.39417">
        <ele>1296</ele>
        <time>2022-06-02T09:28:14Z</time>
      </trkpt>
      <trkpt lat="44.15256" lon="5.39414">
        <ele>1296.1</ele>
        <time>2022-06-02T09:28:43Z</time>
      </trkpt>
      <trkpt lat="44.15256" lon="5.39412">
        <ele>1296.1</ele>
        <time>2022-06-02T09:29:17Z</time>
      </trkpt>
      <trkpt lat="44.15258" lon="5.39395">
        <ele>1296.6</ele>
        <time>2022-06-02T09:29:35Z</time>
      </trkpt>
      <trkpt lat="44.15257" lon="5.39391">
        <ele>1296.7</ele>
        <time>2022-06-02T09:29:38Z</time>
      </trkpt>
      <trkpt lat="44.15254" lon="5.3937">
        <ele>1296.9</ele>
        <time>2022-06-02T09:29:55Z</time>
      </trkpt>
      <trkpt lat="44.15252" lon="5.39357">
        <ele>1296.9</ele>
        <time>2022-06-02T09:30:09Z</time>
      </trkpt>
      <trkpt lat="44.15252" lon="5.39326">
        <ele>1297.4</ele>
        <time>2022-06-02T09:30:33Z</time>
      </trkpt>
      <trkpt lat="44.15248" lon="5.39299">
        <ele>1299.4</ele>
        <time>2022-06-02T09:30:53Z</time>
      </trkpt>
      <trkpt lat="44.15246" lon="5.3928">
        <ele>1300.7</ele>
        <time>2022-06-02T09:31:09Z</time>
      </trkpt>
      <trkpt lat="44.15244" lon="5.39261">
        <ele>1302</ele>
        <time>2022-06-02T09:31:23Z</time>
      </trkpt>
      <trkpt lat="44.15244" lon="5.39254">
        <ele>1302.5</ele>
        <time>2022-06-02T09:31:33Z</time>
      </trkpt>
      <trkpt lat="44.15242" lon="5.39244">
        <ele>1302.8</ele>
        <time>2022-06-02T09:31:57Z</time>
      </trkpt>
      <trkpt lat="44.15245" lon="5.39225">
        <ele>1303</ele>
        <time>2022-06-02T09:32:13Z</time>
      </trkpt>
      <trkpt lat="44.15259" lon="5.39197">
        <ele>1301.4</ele>
        <time>2022-06-02T09:32:36Z</time>
      </trkpt>
      <trkpt lat="44.15269" lon="5.39182">
        <ele>1300.2</ele>
        <time>2022-06-02T09:32:52Z</time>
      </trkpt>
      <trkpt lat="44.15285" lon="5.39157">
        <ele>1298.1</ele>
        <time>2022-06-02T09:33:16Z</time>
      </trkpt>
      <trkpt lat="44.15292" lon="5.39147">
        <ele>1297.3</ele>
        <time>2022-06-02T09:33:23Z</time>
      </trkpt>
      <trkpt lat="44.15301" lon="5.39137">
        <ele>1296.2</ele>
        <time>2022-06-02T09:33:37Z</time>
      </trkpt>
      <trkpt lat="44.15313" lon="5.39117">
        <ele>1293.5</ele>
        <time>2022-06-02T09:33:57Z</time>
      </trkpt>
      <trkpt lat="44.15326" lon="5.39099">
        <ele>1291.2</ele>
        <time>2022-06-02T09:34:16Z</time>
      </trkpt>
      <trkpt lat="44.15338" lon="5.39075">
        <ele>1288.8</ele>
        <time>2022-06-02T09:34:36Z</time>
      </trkpt>
      <trkpt lat="44.15351" lon="5.39052">
        <ele>1287.3</ele>
        <time>2022-06-02T09:34:58Z</time>
      </trkpt>
      <trkpt lat="44.15362" lon="5.39021">
        <ele>1286.9</ele>
        <time>2022-06-02T09:35:22Z</time>
      </trkpt>
      <trkpt lat="44.15368" lon="5.38998">
        <ele>1287.4</ele>
        <time>2022-06-02T09:35:39Z</time>
      </trkpt>
      <trkpt lat="44.15375" lon="5.38973">
        <ele>1289.9</ele>
        <time>2022-06-02T09:35:59Z</time>
      </trkpt>
      <trkpt lat="44.1538" lon="5.38961">
        <ele>1291.9</ele>
        <time>2022-06-02T09:36:13Z</time>
      </trkpt>
      <trkpt lat="44.15385" lon="5.38941">
        <ele>1295.3</ele>
        <time>2022-06-02T09:36:33Z</time>
      </trkpt>
      <trkpt lat="44.15388" lon="5.38912">
        <ele>1298.3</ele>
        <time>2022-06-02T09:36:54Z</time>
      </trkpt>
      <trkpt lat="44.15392" lon="5.38891">
        <ele>1300.6</ele>
        <time>2022-06-02T09:37:16Z</time>
      </trkpt>
      <trkpt lat="44.15394" lon="5.38879">
        <ele>1301.6</ele>
        <time>2022-06-02T09:37:35Z</time>
      </trkpt>
      <trkpt lat="44.15396" lon="5.38877">
        <ele>1301.7</ele>
        <time>2022-06-02T09:37:41Z</time>
      </trkpt>
      <trkpt lat="44.15407" lon="5.3887">
        <ele>1302.2</ele>
        <time>2022-06-02T09:38:02Z</time>
      </trkpt>
      <trkpt lat="44.15413" lon="5.38852">
        <ele>1304.2</ele>
        <time>2022-06-02T09:38:23Z</time>
      </trkpt>
      <trkpt lat="44.15424" lon="5.38831">
        <ele>1304.8</ele>
        <time>2022-06-02T09:38:45Z</time>
      </trkpt>
      <trkpt lat="44.15431" lon="5.38815">
        <ele>1304.7</ele>
        <time>2022-06-02T09:38:56Z</time>
      </trkpt>
      <trkpt lat="44.15441" lon="5.38791">
        <ele>1305.3</ele>
        <time>2022-06-02T09:39:13Z</time>
      </trkpt>
      <trkpt lat="44.15452" lon="5.38775">
        <ele>1304.1</ele>
        <time>2022-06-02T09:39:26Z</time>
      </trkpt>
      <trkpt lat="44.1546" lon="5.38759">
        <ele>1304</ele>
        <time>2022-06-02T09:39:39Z</time>
      </trkpt>
      <trkpt lat="44.15472" lon="5.3875">
        <ele>1303</ele>
        <time>2022-06-02T09:39:54Z</time>
      </trkpt>
      <trkpt lat="44.15484" lon="5.38734">
        <ele>1302.8</ele>
        <time>2022-06-02T09:40:10Z</time>
      </trkpt>
      <trkpt lat="44.15497" lon="5.38718">
        <ele>1303.1</ele>
        <time>2022-06-02T09:40:26Z</time>
      </trkpt>
      <trkpt lat="44.15509" lon="5.38692">
        <ele>1304.6</ele>
        <time>2022-06-02T09:40:43Z</time>
      </trkpt>
      <trkpt lat="44.15516" lon="5.38677">
        <ele>1305.2</ele>
        <time>2022-06-02T09:40:56Z</time>
      </trkpt>
      <trkpt lat="44.15519" lon="5.38667">
        <ele>1306.3</ele>
        <time>2022-06-02T09:41:11Z</time>
      </trkpt>
      <trkpt lat="44.15526" lon="5.38655">
        <ele>1306.8</ele>
        <time>2022-06-02T09:41:21Z</time>
      </trkpt>
      <trkpt lat="44.1554" lon="5.38634">
        <ele>1307.4</ele>
        <time>2022-06-02T09:41:37Z</time>
      </trkpt>
      <trkpt lat="44.15542" lon="5.38633">
        <ele>1307.3</ele>
        <time>2022-06-02T09:41:39Z</time>
      </trkpt>
      <trkpt lat="44.15549" lon="5.38626">
        <ele>1307.5</ele>
        <time>2022-06-02T09:41:51Z</time>
      </trkpt>
      <trkpt lat="44.15548" lon="5.38613">
        <ele>1308.6</ele>
        <time>2022-06-02T09:42:12Z</time>
      </trkpt>
      <trkpt lat="44.15558" lon="5.38602">
        <ele>1309.2</ele>
        <time>2022-06-02T09:42:24Z</time>
      </trkpt>
      <trkpt lat="44.15557" lon="5.38593">
        <ele>1309.6</ele>
        <time>2022-06-02T09:42:39Z</time>
      </trkpt>
      <trkpt lat="44.15564" lon="5.38585">
        <ele>1309.9</ele>
        <time>2022-06-02T09:42:55Z</time>
      </trkpt>
      <trkpt lat="44.15567" lon="5.38567">
        <ele>1309.7</ele>
        <time>2022-06-02T09:43:12Z</time>
      </trkpt>
      <trkpt lat="44.1556" lon="5.38556">
        <ele>1309.2</ele>
        <time>2022-06-02T09:43:31Z</time>
      </trkpt>
      <trkpt lat="44.15546" lon="5.38545">
        <ele>1308.5</ele>
        <time>2022-06-02T09:43:46Z</time>
      </trkpt>
      <trkpt lat="44.15532" lon="5.38532">
        <ele>1307.4</ele>
        <time>2022-06-02T09:44:06Z</time>
      </trkpt>
      <trkpt lat="44.15533" lon="5.38511">
        <ele>1306.5</ele>
        <time>2022-06-02T09:44:26Z</time>
      </trkpt>
      <trkpt lat="44.15531" lon="5.38493">
        <ele>1305.7</ele>
        <time>2022-06-02T09:44:47Z</time>
      </trkpt>
      <trkpt lat="44.15535" lon="5.38472">
        <ele>1304.5</ele>
        <time>2022-06-02T09:45:07Z</time>
      </trkpt>
      <trkpt lat="44.15535" lon="5.38454">
        <ele>1303.3</ele>
        <time>2022-06-02T09:45:27Z</time>
      </trkpt>
      <trkpt lat="44.15535" lon="5.38443">
        <ele>1302.6</ele>
        <time>2022-06-02T09:45:43Z</time>
      </trkpt>
      <trkpt lat="44.15534" lon="5.38413">
        <ele>1300.9</ele>
        <time>2022-06-02T09:46:05Z</time>
      </trkpt>
      <trkpt lat="44.15538" lon="5.38382">
        <ele>1297.2</ele>
        <time>2022-06-02T09:46:28Z</time>
      </trkpt>
      <trkpt lat="44.1554" lon="5.3836">
        <ele>1295.3</ele>
        <time>2022-06-02T09:46:44Z</time>
      </trkpt>
      <trkpt lat="44.15537" lon="5.38359">
        <ele>1295.8</ele>
        <time>2022-06-02T09:47:00Z</time>
      </trkpt>
      <trkpt lat="44.15537" lon="5.38336">
        <ele>1293.3</ele>
        <time>2022-06-02T09:47:20Z</time>
      </trkpt>
      <trkpt lat="44.15541" lon="5.38315">
        <ele>1291.9</ele>
        <time>2022-06-02T09:47:41Z</time>
      </trkpt>
      <trkpt lat="44.1554" lon="5.38301">
        <ele>1291.9</ele>
        <time>2022-06-02T09:48:01Z</time>
      </trkpt>
      <trkpt lat="44.15542" lon="5.38267">
        <ele>1293.6</ele>
        <time>2022-06-02T09:48:23Z</time>
      </trkpt>
      <trkpt lat="44.15542" lon="5.38263">
        <ele>1293.8</ele>
        <time>2022-06-02T09:48:26Z</time>
      </trkpt>
      <trkpt lat="44.15546" lon="5.38244">
        <ele>1295.4</ele>
        <time>2022-06-02T09:48:41Z</time>
      </trkpt>
      <trkpt lat="44.15552" lon="5.38224">
        <ele>1298.1</ele>
        <time>2022-06-02T09:48:59Z</time>
      </trkpt>
      <trkpt lat="44.15556" lon="5.38204">
        <ele>1300.8</ele>
        <time>2022-06-02T09:49:17Z</time>
      </trkpt>
      <trkpt lat="44.15556" lon="5.38186">
        <ele>1302.5</ele>
        <time>2022-06-02T09:49:32Z</time>
      </trkpt>
      <trkpt lat="44.15557" lon="5.38161">
        <ele>1304.1</ele>
        <time>2022-06-02T09:49:51Z</time>
      </trkpt>
      <trkpt lat="44.15557" lon="5.38131">
        <ele>1306.9</ele>
        <time>2022-06-02T09:50:15Z</time>
      </trkpt>
      <trkpt lat="44.15562" lon="5.38112">
        <ele>1309.6</ele>
        <time>2022-06-02T09:50:35Z</time>
      </trkpt>
      <trkpt lat="44.1557" lon="5.3809">
        <ele>1312.1</ele>
        <time>2022-06-02T09:50:53Z</time>
      </trkpt>
      <trkpt lat="44.15578" lon="5.38075">
        <ele>1314.9</ele>
        <time>2022-06-02T09:51:10Z</time>
      </trkpt>
      <trkpt lat="44.15585" lon="5.38058">
        <ele>1316.6</ele>
        <time>2022-06-02T09:51:28Z</time>
      </trkpt>
      <trkpt lat="44.15596" lon="5.38042">
        <ele>1316.7</ele>
        <time>2022-06-02T09:51:46Z</time>
      </trkpt>
      <trkpt lat="44.15601" lon="5.38027">
        <ele>1319</ele>
        <time>2022-06-02T09:52:01Z</time>
      </trkpt>
      <trkpt lat="44.15609" lon="5.38005">
        <ele>1322</ele>
        <time>2022-06-02T09:52:23Z</time>
      </trkpt>
      <trkpt lat="44.15614" lon="5.37979">
        <ele>1321.7</ele>
        <time>2022-06-02T09:52:43Z</time>
      </trkpt>
      <trkpt lat="44.1562" lon="5.37958">
        <ele>1321.4</ele>
        <time>2022-06-02T09:53:00Z</time>
      </trkpt>
      <trkpt lat="44.15624" lon="5.37946">
        <ele>1321.9</ele>
        <time>2022-06-02T09:53:11Z</time>
      </trkpt>
      <trkpt lat="44.1563" lon="5.37915">
        <ele>1323.7</ele>
        <time>2022-06-02T09:53:33Z</time>
      </trkpt>
      <trkpt lat="44.15634" lon="5.37887">
        <ele>1325</ele>
        <time>2022-06-02T09:53:54Z</time>
      </trkpt>
      <trkpt lat="44.15635" lon="5.3786">
        <ele>1328</ele>
        <time>2022-06-02T09:54:15Z</time>
      </trkpt>
      <trkpt lat="44.15637" lon="5.37836">
        <ele>1330.5</ele>
        <time>2022-06-02T09:54:35Z</time>
      </trkpt>
      <trkpt lat="44.15641" lon="5.37832">
        <ele>1330.4</ele>
        <time>2022-06-02T09:55:07Z</time>
      </trkpt>
      <trkpt lat="44.15645" lon="5.37837">
        <ele>1328.3</ele>
        <time>2022-06-02T09:55:23Z</time>
      </trkpt>
      <trkpt lat="44.15645" lon="5.37834">
        <ele>1328.7</ele>
        <time>2022-06-02T09:55:50Z</time>
      </trkpt>
      <trkpt lat="44.15645" lon="5.37837">
        <ele>1328.3</ele>
        <time>2022-06-02T09:56:38Z</time>
      </trkpt>
      <trkpt lat="44.15646" lon="5.37838">
        <ele>1327.8</ele>
        <time>2022-06-02T09:57:14Z</time>
      </trkpt>
      <trkpt lat="44.15645" lon="5.37838">
        <ele>1328.2</ele>
        <time>2022-06-02T09:57:57Z</time>
      </trkpt>
      <trkpt lat="44.15642" lon="5.37834">
        <ele>1329.8</ele>
        <time>2022-06-02T09:58:16Z</time>
      </trkpt>
      <trkpt lat="44.15637" lon="5.37826">
        <ele>1331.3</ele>
        <time>2022-06-02T09:58:28Z</time>
      </trkpt>
      <trkpt lat="44.15635" lon="5.37819">
        <ele>1331.7</ele>
        <time>2022-06-02T09:58:34Z</time>
      </trkpt>
      <trkpt lat="44.15629" lon="5.37797">
        <ele>1332.4</ele>
        <time>2022-06-02T09:58:50Z</time>
      </trkpt>
      <trkpt lat="44.15621" lon="5.37783">
        <ele>1333</ele>
        <time>2022-06-02T09:59:04Z</time>
      </trkpt>
      <trkpt lat="44.15613" lon="5.3777">
        <ele>1334.2</ele>
        <time>2022-06-02T09:59:19Z</time>
      </trkpt>
      <trkpt lat="44.15609" lon="5.37761">
        <ele>1335.1</ele>
        <time>2022-06-02T09:59:32Z</time>
      </trkpt>
      <trkpt lat="44.15604" lon="5.37756">
        <ele>1335.5</ele>
        <time>2022-06-02T09:59:41Z</time>
      </trkpt>
      <trkpt lat="44.15601" lon="5.37752">
        <ele>1335.8</ele>
        <time>2022-06-02T09:59:45Z</time>
      </trkpt>
      <trkpt lat="44.15593" lon="5.37738">
        <ele>1335.5</ele>
        <time>2022-06-02T09:59:57Z</time>
      </trkpt>
      <trkpt lat="44.15584" lon="5.37724">
        <ele>1336.8</ele>
        <time>2022-06-02T10:00:10Z</time>
      </trkpt>
      <trkpt lat="44.15571" lon="5.37706">
        <ele>1337.1</ele>
        <time>2022-06-02T10:00:27Z</time>
      </trkpt>
      <trkpt lat="44.15563" lon="5.37693">
        <ele>1337.7</ele>
        <time>2022-06-02T10:00:42Z</time>
      </trkpt>
      <trkpt lat="44.15555" lon="5.37671">
        <ele>1338.8</ele>
        <time>2022-06-02T10:00:59Z</time>
      </trkpt>
      <trkpt lat="44.15544" lon="5.37648">
        <ele>1336.2</ele>
        <time>2022-06-02T10:01:19Z</time>
      </trkpt>
      <trkpt lat="44.15536" lon="5.37628">
        <ele>1334.2</ele>
        <time>2022-06-02T10:01:36Z</time>
      </trkpt>
      <trkpt lat="44.15526" lon="5.376">
        <ele>1332.3</ele>
        <time>2022-06-02T10:01:57Z</time>
      </trkpt>
      <trkpt lat="44.15519" lon="5.37583">
        <ele>1330</ele>
        <time>2022-06-02T10:02:12Z</time>
      </trkpt>
      <trkpt lat="44.15515" lon="5.37566">
        <ele>1327.7</ele>
        <time>2022-06-02T10:02:28Z</time>
      </trkpt>
      <trkpt lat="44.15515" lon="5.37564">
        <ele>1327.5</ele>
        <time>2022-06-02T10:02:30Z</time>
      </trkpt>
      <trkpt lat="44.1551" lon="5.37543">
        <ele>1325.7</ele>
        <time>2022-06-02T10:02:45Z</time>
      </trkpt>
      <trkpt lat="44.15508" lon="5.37523">
        <ele>1324.3</ele>
        <time>2022-06-02T10:02:58Z</time>
      </trkpt>
      <trkpt lat="44.15509" lon="5.37519">
        <ele>1323.9</ele>
        <time>2022-06-02T10:03:00Z</time>
      </trkpt>
      <trkpt lat="44.15509" lon="5.37503">
        <ele>1322.9</ele>
        <time>2022-06-02T10:03:11Z</time>
      </trkpt>
      <trkpt lat="44.1551" lon="5.37482">
        <ele>1322.1</ele>
        <time>2022-06-02T10:03:27Z</time>
      </trkpt>
      <trkpt lat="44.15509" lon="5.37474">
        <ele>1322.1</ele>
        <time>2022-06-02T10:03:40Z</time>
      </trkpt>
      <trkpt lat="44.15509" lon="5.3747">
        <ele>1321.9</ele>
        <time>2022-06-02T10:03:49Z</time>
      </trkpt>
      <trkpt lat="44.15509" lon="5.37468">
        <ele>1321.8</ele>
        <time>2022-06-02T10:03:51Z</time>
      </trkpt>
      <trkpt lat="44.15511" lon="5.37452">
        <ele>1320.8</ele>
        <time>2022-06-02T10:04:04Z</time>
      </trkpt>
      <trkpt lat="44.15513" lon="5.3743">
        <ele>1319.6</ele>
        <time>2022-06-02T10:04:22Z</time>
      </trkpt>
      <trkpt lat="44.15516" lon="5.3741">
        <ele>1318.6</ele>
        <time>2022-06-02T10:04:39Z</time>
      </trkpt>
      <trkpt lat="44.15518" lon="5.3739">
        <ele>1317.7</ele>
        <time>2022-06-02T10:04:55Z</time>
      </trkpt>
      <trkpt lat="44.1552" lon="5.37366">
        <ele>1316.7</ele>
        <time>2022-06-02T10:05:15Z</time>
      </trkpt>
      <trkpt lat="44.15519" lon="5.37346">
        <ele>1316.6</ele>
        <time>2022-06-02T10:05:33Z</time>
      </trkpt>
      <trkpt lat="44.15522" lon="5.37331">
        <ele>1316.7</ele>
        <time>2022-06-02T10:05:49Z</time>
      </trkpt>
      <trkpt lat="44.15519" lon="5.37324">
        <ele>1317.8</ele>
        <time>2022-06-02T10:06:02Z</time>
      </trkpt>
      <trkpt lat="44.15518" lon="5.37322">
        <ele>1318</ele>
        <time>2022-06-02T10:06:28Z</time>
      </trkpt>
      <trkpt lat="44.15522" lon="5.37312">
        <ele>1319.2</ele>
        <time>2022-06-02T10:06:50Z</time>
      </trkpt>
      <trkpt lat="44.15519" lon="5.37293">
        <ele>1321</ele>
        <time>2022-06-02T10:07:10Z</time>
      </trkpt>
      <trkpt lat="44.15511" lon="5.37268">
        <ele>1322.9</ele>
        <time>2022-06-02T10:07:31Z</time>
      </trkpt>
      <trkpt lat="44.15502" lon="5.37247">
        <ele>1325</ele>
        <time>2022-06-02T10:07:50Z</time>
      </trkpt>
      <trkpt lat="44.15491" lon="5.37225">
        <ele>1328</ele>
        <time>2022-06-02T10:08:09Z</time>
      </trkpt>
      <trkpt lat="44.15484" lon="5.37206">
        <ele>1330.2</ele>
        <time>2022-06-02T10:08:30Z</time>
      </trkpt>
      <trkpt lat="44.1548" lon="5.37184">
        <ele>1332.8</ele>
        <time>2022-06-02T10:08:51Z</time>
      </trkpt>
      <trkpt lat="44.15476" lon="5.37173">
        <ele>1334.6</ele>
        <time>2022-06-02T10:09:07Z</time>
      </trkpt>
      <trkpt lat="44.15474" lon="5.37164">
        <ele>1336</ele>
        <time>2022-06-02T10:09:35Z</time>
      </trkpt>
      <trkpt lat="44.15477" lon="5.37145">
        <ele>1337.8</ele>
        <time>2022-06-02T10:09:51Z</time>
      </trkpt>
      <trkpt lat="44.15477" lon="5.37121">
        <ele>1340</ele>
        <time>2022-06-02T10:10:10Z</time>
      </trkpt>
      <trkpt lat="44.15482" lon="5.37096">
        <ele>1340.3</ele>
        <time>2022-06-02T10:10:29Z</time>
      </trkpt>
      <trkpt lat="44.15492" lon="5.37072">
        <ele>1340.6</ele>
        <time>2022-06-02T10:10:48Z</time>
      </trkpt>
      <trkpt lat="44.15497" lon="5.37054">
        <ele>1341.9</ele>
        <time>2022-06-02T10:11:06Z</time>
      </trkpt>
      <trkpt lat="44.155" lon="5.37044">
        <ele>1342.4</ele>
        <time>2022-06-02T10:11:21Z</time>
      </trkpt>
      <trkpt lat="44.15505" lon="5.37021">
        <ele>1342</ele>
        <time>2022-06-02T10:11:40Z</time>
      </trkpt>
      <trkpt lat="44.15507" lon="5.36997">
        <ele>1342</ele>
        <time>2022-06-02T10:11:56Z</time>
      </trkpt>
      <trkpt lat="44.15506" lon="5.3698">
        <ele>1342</ele>
        <time>2022-06-02T10:12:16Z</time>
      </trkpt>
      <trkpt lat="44.15507" lon="5.36975">
        <ele>1341.8</ele>
        <time>2022-06-02T10:12:37Z</time>
      </trkpt>
      <trkpt lat="44.15508" lon="5.36955">
        <ele>1340.9</ele>
        <time>2022-06-02T10:12:55Z</time>
      </trkpt>
      <trkpt lat="44.15507" lon="5.36934">
        <ele>1340.8</ele>
        <time>2022-06-02T10:13:10Z</time>
      </trkpt>
      <trkpt lat="44.15509" lon="5.36923">
        <ele>1340.6</ele>
        <time>2022-06-02T10:13:17Z</time>
      </trkpt>
      <trkpt lat="44.15512" lon="5.3691">
        <ele>1340.3</ele>
        <time>2022-06-02T10:13:28Z</time>
      </trkpt>
      <trkpt lat="44.1552" lon="5.36889">
        <ele>1340.3</ele>
        <time>2022-06-02T10:13:46Z</time>
      </trkpt>
      <trkpt lat="44.15527" lon="5.36865">
        <ele>1340.8</ele>
        <time>2022-06-02T10:14:05Z</time>
      </trkpt>
      <trkpt lat="44.15537" lon="5.36841">
        <ele>1338.3</ele>
        <time>2022-06-02T10:14:24Z</time>
      </trkpt>
      <trkpt lat="44.15552" lon="5.36812">
        <ele>1337.8</ele>
        <time>2022-06-02T10:14:48Z</time>
      </trkpt>
      <trkpt lat="44.15562" lon="5.36788">
        <ele>1335.5</ele>
        <time>2022-06-02T10:15:07Z</time>
      </trkpt>
      <trkpt lat="44.15575" lon="5.36763">
        <ele>1333.6</ele>
        <time>2022-06-02T10:15:27Z</time>
      </trkpt>
      <trkpt lat="44.15578" lon="5.36759">
        <ele>1333.5</ele>
        <time>2022-06-02T10:15:31Z</time>
      </trkpt>
      <trkpt lat="44.15584" lon="5.36736">
        <ele>1333.8</ele>
        <time>2022-06-02T10:15:51Z</time>
      </trkpt>
      <trkpt lat="44.15577" lon="5.36726">
        <ele>1334</ele>
        <time>2022-06-02T10:16:08Z</time>
      </trkpt>
      <trkpt lat="44.15573" lon="5.36721">
        <ele>1333.9</ele>
        <time>2022-06-02T10:16:17Z</time>
      </trkpt>
      <trkpt lat="44.1556" lon="5.36707">
        <ele>1333.4</ele>
        <time>2022-06-02T10:16:38Z</time>
      </trkpt>
      <trkpt lat="44.15551" lon="5.36704">
        <ele>1333.3</ele>
        <time>2022-06-02T10:16:57Z</time>
      </trkpt>
      <trkpt lat="44.15551" lon="5.36701">
        <ele>1333.2</ele>
        <time>2022-06-02T10:17:07Z</time>
      </trkpt>
      <trkpt lat="44.15559" lon="5.36685">
        <ele>1332.2</ele>
        <time>2022-06-02T10:17:26Z</time>
      </trkpt>
      <trkpt lat="44.15567" lon="5.36679">
        <ele>1331.7</ele>
        <time>2022-06-02T10:17:48Z</time>
      </trkpt>
      <trkpt lat="44.15567" lon="5.36686">
        <ele>1332.1</ele>
        <time>2022-06-02T10:18:13Z</time>
      </trkpt>
      <trkpt lat="44.15568" lon="5.36679">
        <ele>1331.7</ele>
        <time>2022-06-02T10:18:38Z</time>
      </trkpt>
      <trkpt lat="44.15568" lon="5.36673">
        <ele>1331.4</ele>
        <time>2022-06-02T10:18:56Z</time>
      </trkpt>
      <trkpt lat="44.15566" lon="5.36674">
        <ele>1331.4</ele>
        <time>2022-06-02T10:19:19Z</time>
      </trkpt>
      <trkpt lat="44.15564" lon="5.36677">
        <ele>1331.6</ele>
        <time>2022-06-02T10:19:38Z</time>
      </trkpt>
      <trkpt lat="44.15565" lon="5.36678">
        <ele>1331.7</ele>
        <time>2022-06-02T10:20:25Z</time>
      </trkpt>
      <trkpt lat="44.15562" lon="5.36678">
        <ele>1331.7</ele>
        <time>2022-06-02T10:21:17Z</time>
      </trkpt>
      <trkpt lat="44.15566" lon="5.36677">
        <ele>1331.6</ele>
        <time>2022-06-02T10:22:55Z</time>
      </trkpt>
      <trkpt lat="44.15566" lon="5.36682">
        <ele>1331.9</ele>
        <time>2022-06-02T10:23:00Z</time>
      </trkpt>
      <trkpt lat="44.15559" lon="5.3669">
        <ele>1332.6</ele>
        <time>2022-06-02T10:23:13Z</time>
      </trkpt>
      <trkpt lat="44.15555" lon="5.36696">
        <ele>1333.1</ele>
        <time>2022-06-02T10:23:29Z</time>
      </trkpt>
      <trkpt lat="44.15556" lon="5.36697">
        <ele>1333.1</ele>
        <time>2022-06-02T10:23:58Z</time>
      </trkpt>
      <trkpt lat="44.15558" lon="5.36694">
        <ele>1332.9</ele>
        <time>2022-06-02T10:24:44Z</time>
      </trkpt>
      <trkpt lat="44.15556" lon="5.36697">
        <ele>1333.1</ele>
        <time>2022-06-02T10:25:29Z</time>
      </trkpt>
      <trkpt lat="44.15553" lon="5.36699">
        <ele>1333.2</ele>
        <time>2022-06-02T10:26:43Z</time>
      </trkpt>
      <trkpt lat="44.15557" lon="5.36699">
        <ele>1333.1</ele>
        <time>2022-06-02T10:28:21Z</time>
      </trkpt>
      <trkpt lat="44.15563" lon="5.36701">
        <ele>1333</ele>
        <time>2022-06-02T10:30:43Z</time>
      </trkpt>
      <trkpt lat="44.15562" lon="5.36703">
        <ele>1333.1</ele>
        <time>2022-06-02T10:31:47Z</time>
      </trkpt>
      <trkpt lat="44.15571" lon="5.36695">
        <ele>1332.5</ele>
        <time>2022-06-02T10:32:41Z</time>
      </trkpt>
      <trkpt lat="44.15571" lon="5.36696">
        <ele>1332.5</ele>
        <time>2022-06-02T10:33:26Z</time>
      </trkpt>
      <trkpt lat="44.15568" lon="5.36698">
        <ele>1332.7</ele>
        <time>2022-06-02T10:34:14Z</time>
      </trkpt>
      <trkpt lat="44.15571" lon="5.36701">
        <ele>1332.8</ele>
        <time>2022-06-02T10:35:05Z</time>
      </trkpt>
      <trkpt lat="44.15567" lon="5.36703">
        <ele>1333</ele>
        <time>2022-06-02T10:35:50Z</time>
      </trkpt>
      <trkpt lat="44.15563" lon="5.36703">
        <ele>1333.1</ele>
        <time>2022-06-02T10:36:18Z</time>
      </trkpt>
      <trkpt lat="44.15561" lon="5.36704">
        <ele>1333.2</ele>
        <time>2022-06-02T10:36:54Z</time>
      </trkpt>
      <trkpt lat="44.15561" lon="5.36705">
        <ele>1333.3</ele>
        <time>2022-06-02T10:38:11Z</time>
      </trkpt>
      <trkpt lat="44.15563" lon="5.36701">
        <ele>1333</ele>
        <time>2022-06-02T10:39:17Z</time>
      </trkpt>
      <trkpt lat="44.15562" lon="5.36701">
        <ele>1333.1</ele>
        <time>2022-06-02T10:40:21Z</time>
      </trkpt>
      <trkpt lat="44.15563" lon="5.36705">
        <ele>1333.2</ele>
        <time>2022-06-02T10:41:21Z</time>
      </trkpt>
      <trkpt lat="44.15557" lon="5.367">
        <ele>1333.2</ele>
        <time>2022-06-02T10:42:23Z</time>
      </trkpt>
      <trkpt lat="44.15552" lon="5.367">
        <ele>1333.2</ele>
        <time>2022-06-02T10:43:05Z</time>
      </trkpt>
      <trkpt lat="44.15556" lon="5.36697">
        <ele>1333.1</ele>
        <time>2022-06-02T10:43:57Z</time>
      </trkpt>
      <trkpt lat="44.15557" lon="5.36699">
        <ele>1333.1</ele>
        <time>2022-06-02T10:44:40Z</time>
      </trkpt>
      <trkpt lat="44.15559" lon="5.36703">
        <ele>1333.2</ele>
        <time>2022-06-02T10:45:16Z</time>
      </trkpt>
      <trkpt lat="44.15566" lon="5.367">
        <ele>1332.9</ele>
        <time>2022-06-02T10:46:04Z</time>
      </trkpt>
      <trkpt lat="44.15555" lon="5.36693">
        <ele>1332.9</ele>
        <time>2022-06-02T10:47:10Z</time>
      </trkpt>
      <trkpt lat="44.1556" lon="5.36705">
        <ele>1333.3</ele>
        <time>2022-06-02T10:47:51Z</time>
      </trkpt>
      <trkpt lat="44.1556" lon="5.36702">
        <ele>1333.2</ele>
        <time>2022-06-02T10:48:58Z</time>
      </trkpt>
      <trkpt lat="44.15557" lon="5.36703">
        <ele>1333.3</ele>
        <time>2022-06-02T10:49:56Z</time>
      </trkpt>
      <trkpt lat="44.15563" lon="5.367">
        <ele>1333</ele>
        <time>2022-06-02T10:50:36Z</time>
      </trkpt>
      <trkpt lat="44.15565" lon="5.36699">
        <ele>1332.9</ele>
        <time>2022-06-02T10:51:36Z</time>
      </trkpt>
      <trkpt lat="44.15566" lon="5.367">
        <ele>1332.9</ele>
        <time>2022-06-02T10:52:14Z</time>
      </trkpt>
      <trkpt lat="44.15569" lon="5.36704">
        <ele>1333</ele>
        <time>2022-06-02T10:53:38Z</time>
      </trkpt>
      <trkpt lat="44.15561" lon="5.367">
        <ele>1333</ele>
        <time>2022-06-02T10:54:31Z</time>
      </trkpt>
      <trkpt lat="44.1556" lon="5.36701">
        <ele>1333.1</ele>
        <time>2022-06-02T10:55:15Z</time>
      </trkpt>
      <trkpt lat="44.15558" lon="5.36698">
        <ele>1333.1</ele>
        <time>2022-06-02T10:56:03Z</time>
      </trkpt>
      <trkpt lat="44.15559" lon="5.36703">
        <ele>1333.2</ele>
        <time>2022-06-02T10:56:55Z</time>
      </trkpt>
      <trkpt lat="44.15559" lon="5.36701">
        <ele>1333.1</ele>
        <time>2022-06-02T10:57:46Z</time>
      </trkpt>
      <trkpt lat="44.15564" lon="5.36702">
        <ele>1333.1</ele>
        <time>2022-06-02T10:58:46Z</time>
      </trkpt>
      <trkpt lat="44.15562" lon="5.36699">
        <ele>1333</ele>
        <time>2022-06-02T10:59:31Z</time>
      </trkpt>
      <trkpt lat="44.1556" lon="5.36701">
        <ele>1333.1</ele>
        <time>2022-06-02T11:00:18Z</time>
      </trkpt>
      <trkpt lat="44.15561" lon="5.36697">
        <ele>1332.9</ele>
        <time>2022-06-02T11:01:17Z</time>
      </trkpt>
      <trkpt lat="44.15563" lon="5.367">
        <ele>1333</ele>
        <time>2022-06-02T11:02:25Z</time>
      </trkpt>
      <trkpt lat="44.15565" lon="5.36702">
        <ele>1333</ele>
        <time>2022-06-02T11:02:54Z</time>
      </trkpt>
      <trkpt lat="44.15561" lon="5.36697">
        <ele>1332.9</ele>
        <time>2022-06-02T11:03:36Z</time>
      </trkpt>
      <trkpt lat="44.15565" lon="5.36703">
        <ele>1333.1</ele>
        <time>2022-06-02T11:05:20Z</time>
      </trkpt>
      <trkpt lat="44.15565" lon="5.36698">
        <ele>1332.8</ele>
        <time>2022-06-02T11:05:57Z</time>
      </trkpt>
      <trkpt lat="44.15569" lon="5.367">
        <ele>1332.8</ele>
        <time>2022-06-02T11:06:38Z</time>
      </trkpt>
      <trkpt lat="44.15557" lon="5.36695">
        <ele>1333</ele>
        <time>2022-06-02T11:07:21Z</time>
      </trkpt>
      <trkpt lat="44.15561" lon="5.36694">
        <ele>1332.8</ele>
        <time>2022-06-02T11:08:16Z</time>
      </trkpt>
      <trkpt lat="44.15562" lon="5.36694">
        <ele>1332.7</ele>
        <time>2022-06-02T11:09:12Z</time>
      </trkpt>
      <trkpt lat="44.15565" lon="5.367">
        <ele>1332.9</ele>
        <time>2022-06-02T11:09:56Z</time>
      </trkpt>
      <trkpt lat="44.15564" lon="5.36698">
        <ele>1332.9</ele>
        <time>2022-06-02T11:11:56Z</time>
      </trkpt>
      <trkpt lat="44.15562" lon="5.36699">
        <ele>1333</ele>
        <time>2022-06-02T11:15:21Z</time>
      </trkpt>
      <trkpt lat="44.15566" lon="5.36708">
        <ele>1333.3</ele>
        <time>2022-06-02T11:16:20Z</time>
      </trkpt>
      <trkpt lat="44.15563" lon="5.36703">
        <ele>1333.1</ele>
        <time>2022-06-02T11:17:14Z</time>
      </trkpt>
      <trkpt lat="44.15563" lon="5.36702">
        <ele>1333.1</ele>
        <time>2022-06-02T11:17:37Z</time>
      </trkpt>
      <trkpt lat="44.15556" lon="5.36695">
        <ele>1333</ele>
        <time>2022-06-02T11:17:54Z</time>
      </trkpt>
      <trkpt lat="44.15555" lon="5.36695">
        <ele>1333</ele>
        <time>2022-06-02T11:18:10Z</time>
      </trkpt>
      <trkpt lat="44.15569" lon="5.36697">
        <ele>1332.7</ele>
        <time>2022-06-02T11:18:30Z</time>
      </trkpt>
      <trkpt lat="44.15575" lon="5.36701">
        <ele>1332.7</ele>
        <time>2022-06-02T11:18:41Z</time>
      </trkpt>
      <trkpt lat="44.15567" lon="5.367">
        <ele>1332.9</ele>
        <time>2022-06-02T11:18:52Z</time>
      </trkpt>
      <trkpt lat="44.15571" lon="5.36701">
        <ele>1332.8</ele>
        <time>2022-06-02T11:19:08Z</time>
      </trkpt>
      <trkpt lat="44.15576" lon="5.36701">
        <ele>1332.7</ele>
        <time>2022-06-02T11:19:26Z</time>
      </trkpt>
      <trkpt lat="44.15569" lon="5.36699">
        <ele>1332.8</ele>
        <time>2022-06-02T11:19:42Z</time>
      </trkpt>
      <trkpt lat="44.1557" lon="5.36698">
        <ele>1332.7</ele>
        <time>2022-06-02T11:19:50Z</time>
      </trkpt>
      <trkpt lat="44.15568" lon="5.36699">
        <ele>1332.8</ele>
        <time>2022-06-02T11:20:29Z</time>
      </trkpt>
      <trkpt lat="44.15567" lon="5.367">
        <ele>1332.9</ele>
        <time>2022-06-02T11:20:38Z</time>
      </trkpt>
      <trkpt lat="44.15565" lon="5.36703">
        <ele>1333.1</ele>
        <time>2022-06-02T11:20:56Z</time>
      </trkpt>
      <trkpt lat="44.15566" lon="5.36704">
        <ele>1333.1</ele>
        <time>2022-06-02T11:21:17Z</time>
      </trkpt>
      <trkpt lat="44.15564" lon="5.36704">
        <ele>1333.1</ele>
        <time>2022-06-02T11:21:38Z</time>
      </trkpt>
      <trkpt lat="44.1556" lon="5.36704">
        <ele>1333.2</ele>
        <time>2022-06-02T11:22:06Z</time>
      </trkpt>
      <trkpt lat="44.15563" lon="5.36703">
        <ele>1333.1</ele>
        <time>2022-06-02T11:22:45Z</time>
      </trkpt>
      <trkpt lat="44.15563" lon="5.36706">
        <ele>1333.3</ele>
        <time>2022-06-02T11:23:11Z</time>
      </trkpt>
      <trkpt lat="44.1557" lon="5.36708">
        <ele>1333.2</ele>
        <time>2022-06-02T11:23:31Z</time>
      </trkpt>
      <trkpt lat="44.15579" lon="5.36716">
        <ele>1333.6</ele>
        <time>2022-06-02T11:23:47Z</time>
      </trkpt>
      <trkpt lat="44.15583" lon="5.36734">
        <ele>1334</ele>
        <time>2022-06-02T11:24:05Z</time>
      </trkpt>
      <trkpt lat="44.15579" lon="5.36749">
        <ele>1334.2</ele>
        <time>2022-06-02T11:24:19Z</time>
      </trkpt>
      <trkpt lat="44.15569" lon="5.36771">
        <ele>1334.2</ele>
        <time>2022-06-02T11:24:39Z</time>
      </trkpt>
      <trkpt lat="44.15562" lon="5.36785">
        <ele>1335.5</ele>
        <time>2022-06-02T11:24:51Z</time>
      </trkpt>
      <trkpt lat="44.15558" lon="5.36799">
        <ele>1336.8</ele>
        <time>2022-06-02T11:25:04Z</time>
      </trkpt>
      <trkpt lat="44.15551" lon="5.36815">
        <ele>1337.7</ele>
        <time>2022-06-02T11:25:21Z</time>
      </trkpt>
      <trkpt lat="44.15544" lon="5.36834">
        <ele>1337.6</ele>
        <time>2022-06-02T11:25:39Z</time>
      </trkpt>
      <trkpt lat="44.15537" lon="5.36854">
        <ele>1337.7</ele>
        <time>2022-06-02T11:25:58Z</time>
      </trkpt>
      <trkpt lat="44.15527" lon="5.36874">
        <ele>1340.5</ele>
        <time>2022-06-02T11:26:17Z</time>
      </trkpt>
      <trkpt lat="44.15519" lon="5.36896">
        <ele>1340</ele>
        <time>2022-06-02T11:26:37Z</time>
      </trkpt>
      <trkpt lat="44.15512" lon="5.36918">
        <ele>1340.3</ele>
        <time>2022-06-02T11:26:55Z</time>
      </trkpt>
      <trkpt lat="44.15511" lon="5.36941">
        <ele>1340.1</ele>
        <time>2022-06-02T11:27:11Z</time>
      </trkpt>
      <trkpt lat="44.15512" lon="5.36958">
        <ele>1340.3</ele>
        <time>2022-06-02T11:27:26Z</time>
      </trkpt>
      <trkpt lat="44.15511" lon="5.36981">
        <ele>1341.1</ele>
        <time>2022-06-02T11:27:45Z</time>
      </trkpt>
      <trkpt lat="44.15508" lon="5.37011">
        <ele>1341.6</ele>
        <time>2022-06-02T11:28:04Z</time>
      </trkpt>
      <trkpt lat="44.15504" lon="5.37033">
        <ele>1341.8</ele>
        <time>2022-06-02T11:28:19Z</time>
      </trkpt>
      <trkpt lat="44.15497" lon="5.37047">
        <ele>1342.1</ele>
        <time>2022-06-02T11:28:34Z</time>
      </trkpt>
      <trkpt lat="44.15492" lon="5.37045">
        <ele>1341.9</ele>
        <time>2022-06-02T11:28:47Z</time>
      </trkpt>
      <trkpt lat="44.15483" lon="5.37037">
        <ele>1341.2</ele>
        <time>2022-06-02T11:29:02Z</time>
      </trkpt>
      <trkpt lat="44.15469" lon="5.37024">
        <ele>1339.5</ele>
        <time>2022-06-02T11:29:23Z</time>
      </trkpt>
      <trkpt lat="44.15465" lon="5.37019">
        <ele>1338.9</ele>
        <time>2022-06-02T11:29:33Z</time>
      </trkpt>
      <trkpt lat="44.15448" lon="5.37019">
        <ele>1336.2</ele>
        <time>2022-06-02T11:29:53Z</time>
      </trkpt>
      <trkpt lat="44.15437" lon="5.37038">
        <ele>1334.9</ele>
        <time>2022-06-02T11:30:10Z</time>
      </trkpt>
      <trkpt lat="44.15432" lon="5.37034">
        <ele>1333.6</ele>
        <time>2022-06-02T11:30:38Z</time>
      </trkpt>
      <trkpt lat="44.15415" lon="5.37031">
        <ele>1329.9</ele>
        <time>2022-06-02T11:31:04Z</time>
      </trkpt>
      <trkpt lat="44.15395" lon="5.37032">
        <ele>1326.4</ele>
        <time>2022-06-02T11:31:27Z</time>
      </trkpt>
      <trkpt lat="44.1538" lon="5.37033">
        <ele>1323.5</ele>
        <time>2022-06-02T11:31:46Z</time>
      </trkpt>
      <trkpt lat="44.15364" lon="5.37035">
        <ele>1320.1</ele>
        <time>2022-06-02T11:32:06Z</time>
      </trkpt>
      <trkpt lat="44.15355" lon="5.37039">
        <ele>1318.5</ele>
        <time>2022-06-02T11:32:24Z</time>
      </trkpt>
      <trkpt lat="44.15341" lon="5.37037">
        <ele>1315.3</ele>
        <time>2022-06-02T11:32:43Z</time>
      </trkpt>
      <trkpt lat="44.15327" lon="5.37037">
        <ele>1312.1</ele>
        <time>2022-06-02T11:33:02Z</time>
      </trkpt>
      <trkpt lat="44.15314" lon="5.37037">
        <ele>1309</ele>
        <time>2022-06-02T11:33:19Z</time>
      </trkpt>
      <trkpt lat="44.15302" lon="5.37035">
        <ele>1306</ele>
        <time>2022-06-02T11:33:33Z</time>
      </trkpt>
      <trkpt lat="44.153" lon="5.37039">
        <ele>1305.9</ele>
        <time>2022-06-02T11:33:51Z</time>
      </trkpt>
      <trkpt lat="44.15295" lon="5.37039">
        <ele>1304.8</ele>
        <time>2022-06-02T11:34:03Z</time>
      </trkpt>
      <trkpt lat="44.15289" lon="5.37041">
        <ele>1303.6</ele>
        <time>2022-06-02T11:34:19Z</time>
      </trkpt>
      <trkpt lat="44.15284" lon="5.3704">
        <ele>1302.3</ele>
        <time>2022-06-02T11:34:34Z</time>
      </trkpt>
      <trkpt lat="44.15279" lon="5.37045">
        <ele>1301.5</ele>
        <time>2022-06-02T11:35:11Z</time>
      </trkpt>
      <trkpt lat="44.15283" lon="5.37047">
        <ele>1302.6</ele>
        <time>2022-06-02T11:35:38Z</time>
      </trkpt>
      <trkpt lat="44.15282" lon="5.37045">
        <ele>1302.2</ele>
        <time>2022-06-02T11:36:15Z</time>
      </trkpt>
      <trkpt lat="44.15272" lon="5.37033">
        <ele>1299</ele>
        <time>2022-06-02T11:36:38Z</time>
      </trkpt>
      <trkpt lat="44.15263" lon="5.37026">
        <ele>1296</ele>
        <time>2022-06-02T11:36:51Z</time>
      </trkpt>
      <trkpt lat="44.15256" lon="5.3702">
        <ele>1293.4</ele>
        <time>2022-06-02T11:37:07Z</time>
      </trkpt>
      <trkpt lat="44.15249" lon="5.3701">
        <ele>1290.2</ele>
        <time>2022-06-02T11:37:25Z</time>
      </trkpt>
      <trkpt lat="44.15244" lon="5.37004">
        <ele>1288.3</ele>
        <time>2022-06-02T11:37:40Z</time>
      </trkpt>
      <trkpt lat="44.15237" lon="5.36997">
        <ele>1286.1</ele>
        <time>2022-06-02T11:37:56Z</time>
      </trkpt>
      <trkpt lat="44.15238" lon="5.36991">
        <ele>1286.2</ele>
        <time>2022-06-02T11:38:23Z</time>
      </trkpt>
      <trkpt lat="44.15238" lon="5.37002">
        <ele>1286.7</ele>
        <time>2022-06-02T11:38:49Z</time>
      </trkpt>
      <trkpt lat="44.15235" lon="5.37014">
        <ele>1287.8</ele>
        <time>2022-06-02T11:39:20Z</time>
      </trkpt>
      <trkpt lat="44.15235" lon="5.37017">
        <ele>1288.2</ele>
        <time>2022-06-02T11:39:23Z</time>
      </trkpt>
      <trkpt lat="44.15229" lon="5.36997">
        <ele>1284.4</ele>
        <time>2022-06-02T11:39:41Z</time>
      </trkpt>
      <trkpt lat="44.15221" lon="5.36996">
        <ele>1282.7</ele>
        <time>2022-06-02T11:39:49Z</time>
      </trkpt>
      <trkpt lat="44.15215" lon="5.36994">
        <ele>1281.2</ele>
        <time>2022-06-02T11:39:58Z</time>
      </trkpt>
      <trkpt lat="44.15209" lon="5.36999">
        <ele>1279.7</ele>
        <time>2022-06-02T11:40:05Z</time>
      </trkpt>
      <trkpt lat="44.152" lon="5.37002">
        <ele>1277.7</ele>
        <time>2022-06-02T11:40:15Z</time>
      </trkpt>
      <trkpt lat="44.15196" lon="5.37003">
        <ele>1276.9</ele>
        <time>2022-06-02T11:40:20Z</time>
      </trkpt>
      <trkpt lat="44.1519" lon="5.37006">
        <ele>1276.1</ele>
        <time>2022-06-02T11:40:28Z</time>
      </trkpt>
      <trkpt lat="44.15176" lon="5.3701">
        <ele>1273.8</ele>
        <time>2022-06-02T11:40:43Z</time>
      </trkpt>
      <trkpt lat="44.15173" lon="5.37009">
        <ele>1273</ele>
        <time>2022-06-02T11:40:54Z</time>
      </trkpt>
      <trkpt lat="44.15168" lon="5.37007">
        <ele>1271.5</ele>
        <time>2022-06-02T11:41:04Z</time>
      </trkpt>
      <trkpt lat="44.15153" lon="5.37012">
        <ele>1268.7</ele>
        <time>2022-06-02T11:41:25Z</time>
      </trkpt>
      <trkpt lat="44.15142" lon="5.37014">
        <ele>1266.3</ele>
        <time>2022-06-02T11:41:42Z</time>
      </trkpt>
      <trkpt lat="44.15141" lon="5.37015">
        <ele>1266.2</ele>
        <time>2022-06-02T11:41:43Z</time>
      </trkpt>
      <trkpt lat="44.1513" lon="5.37016">
        <ele>1264</ele>
        <time>2022-06-02T11:41:59Z</time>
      </trkpt>
      <trkpt lat="44.15122" lon="5.37013">
        <ele>1261.7</ele>
        <time>2022-06-02T11:42:15Z</time>
      </trkpt>
      <trkpt lat="44.15113" lon="5.37007">
        <ele>1258.7</ele>
        <time>2022-06-02T11:42:32Z</time>
      </trkpt>
      <trkpt lat="44.15099" lon="5.3701">
        <ele>1256.2</ele>
        <time>2022-06-02T11:42:50Z</time>
      </trkpt>
      <trkpt lat="44.15088" lon="5.37006">
        <ele>1253.1</ele>
        <time>2022-06-02T11:43:07Z</time>
      </trkpt>
      <trkpt lat="44.15073" lon="5.37002">
        <ele>1249.5</ele>
        <time>2022-06-02T11:43:27Z</time>
      </trkpt>
      <trkpt lat="44.15067" lon="5.36998">
        <ele>1248</ele>
        <time>2022-06-02T11:43:43Z</time>
      </trkpt>
      <trkpt lat="44.15065" lon="5.37004">
        <ele>1248.3</ele>
        <time>2022-06-02T11:44:08Z</time>
      </trkpt>
      <trkpt lat="44.15062" lon="5.36996">
        <ele>1246.9</ele>
        <time>2022-06-02T11:44:50Z</time>
      </trkpt>
      <trkpt lat="44.15064" lon="5.37005">
        <ele>1248.3</ele>
        <time>2022-06-02T11:45:15Z</time>
      </trkpt>
      <trkpt lat="44.15052" lon="5.37015">
        <ele>1247.4</ele>
        <time>2022-06-02T11:45:34Z</time>
      </trkpt>
      <trkpt lat="44.15034" lon="5.37025">
        <ele>1244.9</ele>
        <time>2022-06-02T11:45:54Z</time>
      </trkpt>
      <trkpt lat="44.15024" lon="5.37039">
        <ele>1243.8</ele>
        <time>2022-06-02T11:46:10Z</time>
      </trkpt>
      <trkpt lat="44.15019" lon="5.37058">
        <ele>1243.5</ele>
        <time>2022-06-02T11:46:27Z</time>
      </trkpt>
      <trkpt lat="44.15013" lon="5.37085">
        <ele>1242.2</ele>
        <time>2022-06-02T11:46:50Z</time>
      </trkpt>
      <trkpt lat="44.15011" lon="5.37119">
        <ele>1240.6</ele>
        <time>2022-06-02T11:47:14Z</time>
      </trkpt>
      <trkpt lat="44.1501" lon="5.37129">
        <ele>1239.6</ele>
        <time>2022-06-02T11:47:21Z</time>
      </trkpt>
      <trkpt lat="44.15011" lon="5.3714">
        <ele>1239</ele>
        <time>2022-06-02T11:47:27Z</time>
      </trkpt>
      <trkpt lat="44.1502" lon="5.37175">
        <ele>1236.3</ele>
        <time>2022-06-02T11:47:51Z</time>
      </trkpt>
      <trkpt lat="44.15031" lon="5.37196">
        <ele>1236</ele>
        <time>2022-06-02T11:48:09Z</time>
      </trkpt>
      <trkpt lat="44.15038" lon="5.37213">
        <ele>1235.9</ele>
        <time>2022-06-02T11:48:22Z</time>
      </trkpt>
      <trkpt lat="44.15043" lon="5.37234">
        <ele>1235</ele>
        <time>2022-06-02T11:48:38Z</time>
      </trkpt>
      <trkpt lat="44.15044" lon="5.37261">
        <ele>1233.6</ele>
        <time>2022-06-02T11:48:54Z</time>
      </trkpt>
      <trkpt lat="44.15039" lon="5.37285">
        <ele>1232</ele>
        <time>2022-06-02T11:49:12Z</time>
      </trkpt>
      <trkpt lat="44.15031" lon="5.37316">
        <ele>1230.6</ele>
        <time>2022-06-02T11:49:37Z</time>
      </trkpt>
      <trkpt lat="44.15021" lon="5.37349">
        <ele>1229.3</ele>
        <time>2022-06-02T11:49:58Z</time>
      </trkpt>
      <trkpt lat="44.15012" lon="5.37375">
        <ele>1228.4</ele>
        <time>2022-06-02T11:50:16Z</time>
      </trkpt>
      <trkpt lat="44.15002" lon="5.37395">
        <ele>1226.2</ele>
        <time>2022-06-02T11:50:31Z</time>
      </trkpt>
      <trkpt lat="44.14997" lon="5.37425">
        <ele>1224.5</ele>
        <time>2022-06-02T11:50:52Z</time>
      </trkpt>
      <trkpt lat="44.14992" lon="5.37433">
        <ele>1223.6</ele>
        <time>2022-06-02T11:51:12Z</time>
      </trkpt>
      <trkpt lat="44.14999" lon="5.37431">
        <ele>1224.8</ele>
        <time>2022-06-02T11:51:40Z</time>
      </trkpt>
      <trkpt lat="44.15004" lon="5.37433">
        <ele>1225.9</ele>
        <time>2022-06-02T11:51:57Z</time>
      </trkpt>
      <trkpt lat="44.14999" lon="5.37439">
        <ele>1224.8</ele>
        <time>2022-06-02T11:52:07Z</time>
      </trkpt>
      <trkpt lat="44.14998" lon="5.37442">
        <ele>1224.6</ele>
        <time>2022-06-02T11:52:09Z</time>
      </trkpt>
      <trkpt lat="44.14991" lon="5.3747">
        <ele>1222.2</ele>
        <time>2022-06-02T11:52:26Z</time>
      </trkpt>
      <trkpt lat="44.14994" lon="5.37482">
        <ele>1222.1</ele>
        <time>2022-06-02T11:52:38Z</time>
      </trkpt>
      <trkpt lat="44.14997" lon="5.37489">
        <ele>1222.2</ele>
        <time>2022-06-02T11:52:46Z</time>
      </trkpt>
      <trkpt lat="44.14997" lon="5.37498">
        <ele>1221.6</ele>
        <time>2022-06-02T11:52:50Z</time>
      </trkpt>
      <trkpt lat="44.14996" lon="5.37505">
        <ele>1220.9</ele>
        <time>2022-06-02T11:52:57Z</time>
      </trkpt>
      <trkpt lat="44.14999" lon="5.3753">
        <ele>1219.7</ele>
        <time>2022-06-02T11:53:12Z</time>
      </trkpt>
      <trkpt lat="44.15" lon="5.37532">
        <ele>1219.7</ele>
        <time>2022-06-02T11:53:15Z</time>
      </trkpt>
      <trkpt lat="44.15003" lon="5.3755">
        <ele>1219.2</ele>
        <time>2022-06-02T11:53:29Z</time>
      </trkpt>
      <trkpt lat="44.15004" lon="5.37569">
        <ele>1218</ele>
        <time>2022-06-02T11:53:42Z</time>
      </trkpt>
      <trkpt lat="44.15008" lon="5.37593">
        <ele>1216.4</ele>
        <time>2022-06-02T11:53:52Z</time>
      </trkpt>
      <trkpt lat="44.15012" lon="5.37613">
        <ele>1214.7</ele>
        <time>2022-06-02T11:54:01Z</time>
      </trkpt>
      <trkpt lat="44.15016" lon="5.37628">
        <ele>1213.3</ele>
        <time>2022-06-02T11:54:10Z</time>
      </trkpt>
      <trkpt lat="44.15026" lon="5.37648">
        <ele>1212.5</ele>
        <time>2022-06-02T11:54:21Z</time>
      </trkpt>
      <trkpt lat="44.15029" lon="5.37651">
        <ele>1212.7</ele>
        <time>2022-06-02T11:54:31Z</time>
      </trkpt>
      <trkpt lat="44.15036" lon="5.37669">
        <ele>1210.9</ele>
        <time>2022-06-02T11:54:45Z</time>
      </trkpt>
      <trkpt lat="44.15043" lon="5.37681">
        <ele>1210.8</ele>
        <time>2022-06-02T11:54:57Z</time>
      </trkpt>
      <trkpt lat="44.15045" lon="5.37683">
        <ele>1211</ele>
        <time>2022-06-02T11:54:59Z</time>
      </trkpt>
      <trkpt lat="44.15051" lon="5.37691">
        <ele>1211.3</ele>
        <time>2022-06-02T11:55:08Z</time>
      </trkpt>
      <trkpt lat="44.15052" lon="5.37698">
        <ele>1210.5</ele>
        <time>2022-06-02T11:55:18Z</time>
      </trkpt>
      <trkpt lat="44.15059" lon="5.37701">
        <ele>1212.1</ele>
        <time>2022-06-02T11:55:32Z</time>
      </trkpt>
      <trkpt lat="44.15066" lon="5.37717">
        <ele>1212.1</ele>
        <time>2022-06-02T11:55:44Z</time>
      </trkpt>
      <trkpt lat="44.1507" lon="5.37743">
        <ele>1210.4</ele>
        <time>2022-06-02T11:56:03Z</time>
      </trkpt>
      <trkpt lat="44.15072" lon="5.37757">
        <ele>1209.4</ele>
        <time>2022-06-02T11:56:14Z</time>
      </trkpt>
      <trkpt lat="44.15072" lon="5.37758">
        <ele>1209.2</ele>
        <time>2022-06-02T11:56:15Z</time>
      </trkpt>
      <trkpt lat="44.15077" lon="5.3778">
        <ele>1208.1</ele>
        <time>2022-06-02T11:56:29Z</time>
      </trkpt>
      <trkpt lat="44.15078" lon="5.37791">
        <ele>1206.6</ele>
        <time>2022-06-02T11:56:37Z</time>
      </trkpt>
      <trkpt lat="44.15086" lon="5.37807">
        <ele>1206.9</ele>
        <time>2022-06-02T11:56:50Z</time>
      </trkpt>
      <trkpt lat="44.15089" lon="5.37816">
        <ele>1206.6</ele>
        <time>2022-06-02T11:56:56Z</time>
      </trkpt>
      <trkpt lat="44.1509" lon="5.37819">
        <ele>1206.5</ele>
        <time>2022-06-02T11:56:58Z</time>
      </trkpt>
      <trkpt lat="44.15098" lon="5.37835">
        <ele>1207.1</ele>
        <time>2022-06-02T11:57:09Z</time>
      </trkpt>
      <trkpt lat="44.15099" lon="5.3786">
        <ele>1203.3</ele>
        <time>2022-06-02T11:57:26Z</time>
      </trkpt>
      <trkpt lat="44.15106" lon="5.37878">
        <ele>1204.6</ele>
        <time>2022-06-02T11:57:38Z</time>
      </trkpt>
      <trkpt lat="44.15112" lon="5.37895">
        <ele>1205.4</ele>
        <time>2022-06-02T11:57:50Z</time>
      </trkpt>
      <trkpt lat="44.15108" lon="5.37913">
        <ele>1204.7</ele>
        <time>2022-06-02T11:58:03Z</time>
      </trkpt>
      <trkpt lat="44.151" lon="5.37934">
        <ele>1205.9</ele>
        <time>2022-06-02T11:58:20Z</time>
      </trkpt>
      <trkpt lat="44.151" lon="5.37951">
        <ele>1208.4</ele>
        <time>2022-06-02T11:58:38Z</time>
      </trkpt>
      <trkpt lat="44.15108" lon="5.37967">
        <ele>1209.8</ele>
        <time>2022-06-02T11:58:57Z</time>
      </trkpt>
      <trkpt lat="44.1511" lon="5.37969">
        <ele>1209.7</ele>
        <time>2022-06-02T11:59:01Z</time>
      </trkpt>
      <trkpt lat="44.15113" lon="5.37968">
        <ele>1209.4</ele>
        <time>2022-06-02T11:59:04Z</time>
      </trkpt>
      <trkpt lat="44.1512" lon="5.37962">
        <ele>1209.3</ele>
        <time>2022-06-02T11:59:20Z</time>
      </trkpt>
      <trkpt lat="44.15122" lon="5.37962">
        <ele>1209.6</ele>
        <time>2022-06-02T11:59:25Z</time>
      </trkpt>
      <trkpt lat="44.15115" lon="5.37973">
        <ele>1210.3</ele>
        <time>2022-06-02T11:59:58Z</time>
      </trkpt>
      <trkpt lat="44.15115" lon="5.37964">
        <ele>1209</ele>
        <time>2022-06-02T12:00:14Z</time>
      </trkpt>
      <trkpt lat="44.15118" lon="5.3796">
        <ele>1208.8</ele>
        <time>2022-06-02T12:00:40Z</time>
      </trkpt>
      <trkpt lat="44.15114" lon="5.37962">
        <ele>1208.5</ele>
        <time>2022-06-02T12:00:59Z</time>
      </trkpt>
      <trkpt lat="44.15124" lon="5.37977">
        <ele>1211.4</ele>
        <time>2022-06-02T12:01:21Z</time>
      </trkpt>
      <trkpt lat="44.15135" lon="5.37996">
        <ele>1213.3</ele>
        <time>2022-06-02T12:01:44Z</time>
      </trkpt>
      <trkpt lat="44.15154" lon="5.38009">
        <ele>1215.5</ele>
        <time>2022-06-02T12:02:08Z</time>
      </trkpt>
      <trkpt lat="44.15165" lon="5.38026">
        <ele>1217</ele>
        <time>2022-06-02T12:02:27Z</time>
      </trkpt>
      <trkpt lat="44.15179" lon="5.38038">
        <ele>1219.4</ele>
        <time>2022-06-02T12:02:48Z</time>
      </trkpt>
      <trkpt lat="44.15195" lon="5.38052">
        <ele>1220.7</ele>
        <time>2022-06-02T12:03:11Z</time>
      </trkpt>
      <trkpt lat="44.15207" lon="5.38067">
        <ele>1223.6</ele>
        <time>2022-06-02T12:03:35Z</time>
      </trkpt>
      <trkpt lat="44.15213" lon="5.38066">
        <ele>1223.3</ele>
        <time>2022-06-02T12:03:59Z</time>
      </trkpt>
      <trkpt lat="44.15228" lon="5.38078">
        <ele>1224.8</ele>
        <time>2022-06-02T12:04:18Z</time>
      </trkpt>
      <trkpt lat="44.15241" lon="5.38088">
        <ele>1226.3</ele>
        <time>2022-06-02T12:04:35Z</time>
      </trkpt>
      <trkpt lat="44.1525" lon="5.38104">
        <ele>1227.5</ele>
        <time>2022-06-02T12:04:51Z</time>
      </trkpt>
      <trkpt lat="44.15259" lon="5.38118">
        <ele>1230.5</ele>
        <time>2022-06-02T12:05:09Z</time>
      </trkpt>
      <trkpt lat="44.15265" lon="5.38129">
        <ele>1232.2</ele>
        <time>2022-06-02T12:05:22Z</time>
      </trkpt>
      <trkpt lat="44.15277" lon="5.38142">
        <ele>1232.4</ele>
        <time>2022-06-02T12:05:44Z</time>
      </trkpt>
      <trkpt lat="44.15278" lon="5.38154">
        <ele>1233.7</ele>
        <time>2022-06-02T12:06:03Z</time>
      </trkpt>
      <trkpt lat="44.15277" lon="5.38156">
        <ele>1234</ele>
        <time>2022-06-02T12:06:26Z</time>
      </trkpt>
      <trkpt lat="44.15276" lon="5.38161">
        <ele>1234.7</ele>
        <time>2022-06-02T12:07:01Z</time>
      </trkpt>
      <trkpt lat="44.15278" lon="5.38162">
        <ele>1234.5</ele>
        <time>2022-06-02T12:07:32Z</time>
      </trkpt>
      <trkpt lat="44.15285" lon="5.38169">
        <ele>1236.2</ele>
        <time>2022-06-02T12:07:45Z</time>
      </trkpt>
      <trkpt lat="44.15291" lon="5.38182">
        <ele>1238.2</ele>
        <time>2022-06-02T12:08:02Z</time>
      </trkpt>
      <trkpt lat="44.15292" lon="5.38185">
        <ele>1238.5</ele>
        <time>2022-06-02T12:08:06Z</time>
      </trkpt>
      <trkpt lat="44.15304" lon="5.38206">
        <ele>1239.9</ele>
        <time>2022-06-02T12:08:28Z</time>
      </trkpt>
      <trkpt lat="44.15306" lon="5.38223">
        <ele>1242.2</ele>
        <time>2022-06-02T12:08:46Z</time>
      </trkpt>
      <trkpt lat="44.15295" lon="5.3823">
        <ele>1244.8</ele>
        <time>2022-06-02T12:09:07Z</time>
      </trkpt>
      <trkpt lat="44.1529" lon="5.38238">
        <ele>1246.8</ele>
        <time>2022-06-02T12:09:26Z</time>
      </trkpt>
      <trkpt lat="44.15288" lon="5.38239">
        <ele>1247.2</ele>
        <time>2022-06-02T12:09:50Z</time>
      </trkpt>
      <trkpt lat="44.15286" lon="5.38252">
        <ele>1249.5</ele>
        <time>2022-06-02T12:10:09Z</time>
      </trkpt>
      <trkpt lat="44.15283" lon="5.38266">
        <ele>1252.3</ele>
        <time>2022-06-02T12:10:25Z</time>
      </trkpt>
      <trkpt lat="44.15276" lon="5.38276">
        <ele>1254.9</ele>
        <time>2022-06-02T12:10:44Z</time>
      </trkpt>
      <trkpt lat="44.15275" lon="5.38295">
        <ele>1257.8</ele>
        <time>2022-06-02T12:11:04Z</time>
      </trkpt>
      <trkpt lat="44.15273" lon="5.38303">
        <ele>1259.1</ele>
        <time>2022-06-02T12:11:16Z</time>
      </trkpt>
      <trkpt lat="44.15268" lon="5.38305">
        <ele>1260</ele>
        <time>2022-06-02T12:11:38Z</time>
      </trkpt>
      <trkpt lat="44.15267" lon="5.38318">
        <ele>1261.8</ele>
        <time>2022-06-02T12:11:50Z</time>
      </trkpt>
      <trkpt lat="44.15263" lon="5.38334">
        <ele>1264.1</ele>
        <time>2022-06-02T12:12:09Z</time>
      </trkpt>
      <trkpt lat="44.15257" lon="5.3835">
        <ele>1265.8</ele>
        <time>2022-06-02T12:12:28Z</time>
      </trkpt>
      <trkpt lat="44.15253" lon="5.38367">
        <ele>1267.3</ele>
        <time>2022-06-02T12:12:45Z</time>
      </trkpt>
      <trkpt lat="44.15249" lon="5.38387">
        <ele>1268.8</ele>
        <time>2022-06-02T12:13:01Z</time>
      </trkpt>
      <trkpt lat="44.15249" lon="5.38396">
        <ele>1269.2</ele>
        <time>2022-06-02T12:13:21Z</time>
      </trkpt>
      <trkpt lat="44.15251" lon="5.38397">
        <ele>1269.3</ele>
        <time>2022-06-02T12:13:38Z</time>
      </trkpt>
      <trkpt lat="44.15246" lon="5.38403">
        <ele>1269.3</ele>
        <time>2022-06-02T12:14:05Z</time>
      </trkpt>
      <trkpt lat="44.15247" lon="5.38403">
        <ele>1269.3</ele>
        <time>2022-06-02T12:14:08Z</time>
      </trkpt>
      <trkpt lat="44.15248" lon="5.38396">
        <ele>1269.2</ele>
        <time>2022-06-02T12:14:37Z</time>
      </trkpt>
      <trkpt lat="44.15245" lon="5.38387">
        <ele>1268.7</ele>
        <time>2022-06-02T12:15:15Z</time>
      </trkpt>
      <trkpt lat="44.15245" lon="5.38389">
        <ele>1268.8</ele>
        <time>2022-06-02T12:15:52Z</time>
      </trkpt>
      <trkpt lat="44.15249" lon="5.38401">
        <ele>1269.4</ele>
        <time>2022-06-02T12:16:41Z</time>
      </trkpt>
      <trkpt lat="44.15247" lon="5.38411">
        <ele>1269.6</ele>
        <time>2022-06-02T12:16:51Z</time>
      </trkpt>
      <trkpt lat="44.1524" lon="5.38431">
        <ele>1268.8</ele>
        <time>2022-06-02T12:17:09Z</time>
      </trkpt>
      <trkpt lat="44.15233" lon="5.38448">
        <ele>1267.6</ele>
        <time>2022-06-02T12:17:27Z</time>
      </trkpt>
      <trkpt lat="44.15229" lon="5.38467">
        <ele>1266.1</ele>
        <time>2022-06-02T12:17:44Z</time>
      </trkpt>
      <trkpt lat="44.15219" lon="5.38491">
        <ele>1263.3</ele>
        <time>2022-06-02T12:18:07Z</time>
      </trkpt>
      <trkpt lat="44.15215" lon="5.38513">
        <ele>1261.5</ele>
        <time>2022-06-02T12:18:27Z</time>
      </trkpt>
      <trkpt lat="44.15208" lon="5.38533">
        <ele>1258.8</ele>
        <time>2022-06-02T12:18:47Z</time>
      </trkpt>
      <trkpt lat="44.15204" lon="5.38547">
        <ele>1256.2</ele>
        <time>2022-06-02T12:19:06Z</time>
      </trkpt>
      <trkpt lat="44.15203" lon="5.38552">
        <ele>1255.3</ele>
        <time>2022-06-02T12:19:12Z</time>
      </trkpt>
      <trkpt lat="44.15198" lon="5.38572">
        <ele>1251.6</ele>
        <time>2022-06-02T12:19:33Z</time>
      </trkpt>
      <trkpt lat="44.15192" lon="5.38592">
        <ele>1249.1</ele>
        <time>2022-06-02T12:19:56Z</time>
      </trkpt>
      <trkpt lat="44.1519" lon="5.38596">
        <ele>1248.9</ele>
        <time>2022-06-02T12:20:22Z</time>
      </trkpt>
      <trkpt lat="44.15191" lon="5.38596">
        <ele>1249.1</ele>
        <time>2022-06-02T12:20:56Z</time>
      </trkpt>
      <trkpt lat="44.15202" lon="5.38593">
        <ele>1251.9</ele>
        <time>2022-06-02T12:21:25Z</time>
      </trkpt>
      <trkpt lat="44.15199" lon="5.38593">
        <ele>1251</ele>
        <time>2022-06-02T12:21:47Z</time>
      </trkpt>
      <trkpt lat="44.15184" lon="5.38588">
        <ele>1247.3</ele>
        <time>2022-06-02T12:22:02Z</time>
      </trkpt>
      <trkpt lat="44.15168" lon="5.38594">
        <ele>1243.9</ele>
        <time>2022-06-02T12:22:19Z</time>
      </trkpt>
      <trkpt lat="44.15159" lon="5.38596">
        <ele>1242.1</ele>
        <time>2022-06-02T12:22:32Z</time>
      </trkpt>
      <trkpt lat="44.15151" lon="5.38599">
        <ele>1240.2</ele>
        <time>2022-06-02T12:22:44Z</time>
      </trkpt>
      <trkpt lat="44.15142" lon="5.38603">
        <ele>1237.9</ele>
        <time>2022-06-02T12:22:57Z</time>
      </trkpt>
      <trkpt lat="44.15133" lon="5.38605">
        <ele>1235.9</ele>
        <time>2022-06-02T12:23:08Z</time>
      </trkpt>
      <trkpt lat="44.15131" lon="5.38606">
        <ele>1235.4</ele>
        <time>2022-06-02T12:23:11Z</time>
      </trkpt>
      <trkpt lat="44.15118" lon="5.38612">
        <ele>1232.3</ele>
        <time>2022-06-02T12:23:26Z</time>
      </trkpt>
      <trkpt lat="44.15107" lon="5.3861">
        <ele>1230.5</ele>
        <time>2022-06-02T12:23:39Z</time>
      </trkpt>
      <trkpt lat="44.15094" lon="5.3861">
        <ele>1228.1</ele>
        <time>2022-06-02T12:23:53Z</time>
      </trkpt>
      <trkpt lat="44.15081" lon="5.38612">
        <ele>1225.7</ele>
        <time>2022-06-02T12:24:08Z</time>
      </trkpt>
      <trkpt lat="44.15079" lon="5.38611">
        <ele>1225.4</ele>
        <time>2022-06-02T12:24:10Z</time>
      </trkpt>
      <trkpt lat="44.15067" lon="5.38606">
        <ele>1224.2</ele>
        <time>2022-06-02T12:24:23Z</time>
      </trkpt>
      <trkpt lat="44.15055" lon="5.386">
        <ele>1222.3</ele>
        <time>2022-06-02T12:24:36Z</time>
      </trkpt>
      <trkpt lat="44.15042" lon="5.38593">
        <ele>1220.6</ele>
        <time>2022-06-02T12:24:50Z</time>
      </trkpt>
      <trkpt lat="44.15033" lon="5.3859">
        <ele>1219.1</ele>
        <time>2022-06-02T12:25:00Z</time>
      </trkpt>
      <trkpt lat="44.15018" lon="5.38581">
        <ele>1216.9</ele>
        <time>2022-06-02T12:25:17Z</time>
      </trkpt>
      <trkpt lat="44.15" lon="5.38575">
        <ele>1214.6</ele>
        <time>2022-06-02T12:25:37Z</time>
      </trkpt>
      <trkpt lat="44.14988" lon="5.38573">
        <ele>1212.9</ele>
        <time>2022-06-02T12:25:53Z</time>
      </trkpt>
      <trkpt lat="44.14973" lon="5.38575">
        <ele>1210.4</ele>
        <time>2022-06-02T12:26:11Z</time>
      </trkpt>
      <trkpt lat="44.1495" lon="5.38569">
        <ele>1207.7</ele>
        <time>2022-06-02T12:26:35Z</time>
      </trkpt>
      <trkpt lat="44.14946" lon="5.38568">
        <ele>1207.1</ele>
        <time>2022-06-02T12:26:39Z</time>
      </trkpt>
      <trkpt lat="44.1493" lon="5.38555">
        <ele>1204</ele>
        <time>2022-06-02T12:26:56Z</time>
      </trkpt>
      <trkpt lat="44.14917" lon="5.38546">
        <ele>1202.7</ele>
        <time>2022-06-02T12:27:10Z</time>
      </trkpt>
      <trkpt lat="44.14901" lon="5.38541">
        <ele>1200.2</ele>
        <time>2022-06-02T12:27:29Z</time>
      </trkpt>
      <trkpt lat="44.14883" lon="5.38539">
        <ele>1197.2</ele>
        <time>2022-06-02T12:27:49Z</time>
      </trkpt>
      <trkpt lat="44.14865" lon="5.38532">
        <ele>1194.1</ele>
        <time>2022-06-02T12:28:08Z</time>
      </trkpt>
      <trkpt lat="44.14854" lon="5.38524">
        <ele>1192.7</ele>
        <time>2022-06-02T12:28:24Z</time>
      </trkpt>
      <trkpt lat="44.14842" lon="5.38513">
        <ele>1191.4</ele>
        <time>2022-06-02T12:28:43Z</time>
      </trkpt>
      <trkpt lat="44.14826" lon="5.38498">
        <ele>1188.5</ele>
        <time>2022-06-02T12:29:04Z</time>
      </trkpt>
      <trkpt lat="44.14817" lon="5.38488">
        <ele>1187.5</ele>
        <time>2022-06-02T12:29:20Z</time>
      </trkpt>
      <trkpt lat="44.14799" lon="5.38479">
        <ele>1185.1</ele>
        <time>2022-06-02T12:29:39Z</time>
      </trkpt>
      <trkpt lat="44.14782" lon="5.38461">
        <ele>1182.3</ele>
        <time>2022-06-02T12:29:59Z</time>
      </trkpt>
      <trkpt lat="44.14771" lon="5.38438">
        <ele>1179.8</ele>
        <time>2022-06-02T12:30:21Z</time>
      </trkpt>
      <trkpt lat="44.14761" lon="5.38418">
        <ele>1178.3</ele>
        <time>2022-06-02T12:30:41Z</time>
      </trkpt>
      <trkpt lat="44.14751" lon="5.38393">
        <ele>1175.5</ele>
        <time>2022-06-02T12:31:02Z</time>
      </trkpt>
      <trkpt lat="44.14744" lon="5.38388">
        <ele>1174.8</ele>
        <time>2022-06-02T12:31:10Z</time>
      </trkpt>
      <trkpt lat="44.1473" lon="5.38375">
        <ele>1173.5</ele>
        <time>2022-06-02T12:31:29Z</time>
      </trkpt>
      <trkpt lat="44.14721" lon="5.38367">
        <ele>1171.6</ele>
        <time>2022-06-02T12:31:38Z</time>
      </trkpt>
      <trkpt lat="44.14709" lon="5.38359">
        <ele>1170.1</ele>
        <time>2022-06-02T12:31:51Z</time>
      </trkpt>
      <trkpt lat="44.147" lon="5.38349">
        <ele>1169.1</ele>
        <time>2022-06-02T12:32:03Z</time>
      </trkpt>
      <trkpt lat="44.14694" lon="5.38345">
        <ele>1168.4</ele>
        <time>2022-06-02T12:32:09Z</time>
      </trkpt>
      <trkpt lat="44.14681" lon="5.38332">
        <ele>1167</ele>
        <time>2022-06-02T12:32:23Z</time>
      </trkpt>
      <trkpt lat="44.14667" lon="5.3832">
        <ele>1165.1</ele>
        <time>2022-06-02T12:32:38Z</time>
      </trkpt>
      <trkpt lat="44.14657" lon="5.38304">
        <ele>1164.2</ele>
        <time>2022-06-02T12:32:50Z</time>
      </trkpt>
      <trkpt lat="44.14651" lon="5.38294">
        <ele>1163.4</ele>
        <time>2022-06-02T12:33:01Z</time>
      </trkpt>
      <trkpt lat="44.14648" lon="5.38289">
        <ele>1162.9</ele>
        <time>2022-06-02T12:33:06Z</time>
      </trkpt>
      <trkpt lat="44.14645" lon="5.38278">
        <ele>1161.5</ele>
        <time>2022-06-02T12:33:14Z</time>
      </trkpt>
      <trkpt lat="44.1464" lon="5.38258">
        <ele>1159.7</ele>
        <time>2022-06-02T12:33:28Z</time>
      </trkpt>
      <trkpt lat="44.14629" lon="5.38247">
        <ele>1159.5</ele>
        <time>2022-06-02T12:33:45Z</time>
      </trkpt>
      <trkpt lat="44.14623" lon="5.38239">
        <ele>1159.1</ele>
        <time>2022-06-02T12:33:53Z</time>
      </trkpt>
      <trkpt lat="44.14609" lon="5.38226">
        <ele>1157.8</ele>
        <time>2022-06-02T12:34:08Z</time>
      </trkpt>
      <trkpt lat="44.14601" lon="5.38206">
        <ele>1156.9</ele>
        <time>2022-06-02T12:34:25Z</time>
      </trkpt>
      <trkpt lat="44.14593" lon="5.38184">
        <ele>1155.3</ele>
        <time>2022-06-02T12:34:45Z</time>
      </trkpt>
      <trkpt lat="44.14586" lon="5.38165">
        <ele>1153.1</ele>
        <time>2022-06-02T12:35:05Z</time>
      </trkpt>
      <trkpt lat="44.14586" lon="5.38162">
        <ele>1152.9</ele>
        <time>2022-06-02T12:35:11Z</time>
      </trkpt>
      <trkpt lat="44.14584" lon="5.38156">
        <ele>1152.3</ele>
        <time>2022-06-02T12:35:37Z</time>
      </trkpt>
      <trkpt lat="44.14589" lon="5.38166">
        <ele>1153.4</ele>
        <time>2022-06-02T12:36:16Z</time>
      </trkpt>
      <trkpt lat="44.1459" lon="5.38167">
        <ele>1153.5</ele>
        <time>2022-06-02T12:36:44Z</time>
      </trkpt>
      <trkpt lat="44.14588" lon="5.38168">
        <ele>1153.5</ele>
        <time>2022-06-02T12:37:04Z</time>
      </trkpt>
      <trkpt lat="44.14591" lon="5.38166">
        <ele>1153.5</ele>
        <time>2022-06-02T12:37:35Z</time>
      </trkpt>
      <trkpt lat="44.14585" lon="5.38163">
        <ele>1152.9</ele>
        <time>2022-06-02T12:38:01Z</time>
      </trkpt>
      <trkpt lat="44.14582" lon="5.38156">
        <ele>1152.3</ele>
        <time>2022-06-02T12:38:05Z</time>
      </trkpt>
      <trkpt lat="44.14568" lon="5.38136">
        <ele>1151.3</ele>
        <time>2022-06-02T12:38:22Z</time>
      </trkpt>
      <trkpt lat="44.1456" lon="5.38125">
        <ele>1150.2</ele>
        <time>2022-06-02T12:38:31Z</time>
      </trkpt>
      <trkpt lat="44.14548" lon="5.38106">
        <ele>1148.6</ele>
        <time>2022-06-02T12:38:43Z</time>
      </trkpt>
      <trkpt lat="44.14536" lon="5.38081">
        <ele>1147.2</ele>
        <time>2022-06-02T12:39:00Z</time>
      </trkpt>
      <trkpt lat="44.14523" lon="5.38055">
        <ele>1145</ele>
        <time>2022-06-02T12:39:19Z</time>
      </trkpt>
      <trkpt lat="44.14523" lon="5.38053">
        <ele>1144.8</ele>
        <time>2022-06-02T12:39:20Z</time>
      </trkpt>
      <trkpt lat="44.14522" lon="5.38043">
        <ele>1143.9</ele>
        <time>2022-06-02T12:39:35Z</time>
      </trkpt>
      <trkpt lat="44.1452" lon="5.38022">
        <ele>1142.1</ele>
        <time>2022-06-02T12:39:54Z</time>
      </trkpt>
      <trkpt lat="44.14519" lon="5.3801">
        <ele>1141</ele>
        <time>2022-06-02T12:40:09Z</time>
      </trkpt>
      <trkpt lat="44.14516" lon="5.3799">
        <ele>1139.9</ele>
        <time>2022-06-02T12:40:27Z</time>
      </trkpt>
      <trkpt lat="44.14513" lon="5.37959">
        <ele>1137.9</ele>
        <time>2022-06-02T12:40:49Z</time>
      </trkpt>
      <trkpt lat="44.14506" lon="5.37926">
        <ele>1134.7</ele>
        <time>2022-06-02T12:41:13Z</time>
      </trkpt>
      <trkpt lat="44.14504" lon="5.37904">
        <ele>1132.3</ele>
        <time>2022-06-02T12:41:30Z</time>
      </trkpt>
      <trkpt lat="44.14492" lon="5.3788">
        <ele>1130.3</ele>
        <time>2022-06-02T12:41:47Z</time>
      </trkpt>
      <trkpt lat="44.14479" lon="5.37858">
        <ele>1128.6</ele>
        <time>2022-06-02T12:42:11Z</time>
      </trkpt>
      <trkpt lat="44.14465" lon="5.37834">
        <ele>1125.4</ele>
        <time>2022-06-02T12:42:32Z</time>
      </trkpt>
      <trkpt lat="44.14458" lon="5.37825">
        <ele>1125.8</ele>
        <time>2022-06-02T12:42:47Z</time>
      </trkpt>
      <trkpt lat="44.14452" lon="5.37804">
        <ele>1124.3</ele>
        <time>2022-06-02T12:43:04Z</time>
      </trkpt>
      <trkpt lat="44.14444" lon="5.3778">
        <ele>1120.5</ele>
        <time>2022-06-02T12:43:20Z</time>
      </trkpt>
      <trkpt lat="44.14435" lon="5.37755">
        <ele>1119</ele>
        <time>2022-06-02T12:43:36Z</time>
      </trkpt>
      <trkpt lat="44.14433" lon="5.37748">
        <ele>1118.5</ele>
        <time>2022-06-02T12:43:40Z</time>
      </trkpt>
      <trkpt lat="44.14426" lon="5.37728">
        <ele>1117.5</ele>
        <time>2022-06-02T12:43:54Z</time>
      </trkpt>
      <trkpt lat="44.1442" lon="5.37713">
        <ele>1116.5</ele>
        <time>2022-06-02T12:44:06Z</time>
      </trkpt>
      <trkpt lat="44.14416" lon="5.37692">
        <ele>1113.7</ele>
        <time>2022-06-02T12:44:21Z</time>
      </trkpt>
      <trkpt lat="44.14413" lon="5.37671">
        <ele>1111.2</ele>
        <time>2022-06-02T12:44:35Z</time>
      </trkpt>
      <trkpt lat="44.14408" lon="5.37651">
        <ele>1109.4</ele>
        <time>2022-06-02T12:44:49Z</time>
      </trkpt>
      <trkpt lat="44.14405" lon="5.37634">
        <ele>1108</ele>
        <time>2022-06-02T12:45:00Z</time>
      </trkpt>
      <trkpt lat="44.14404" lon="5.37631">
        <ele>1107.8</ele>
        <time>2022-06-02T12:45:02Z</time>
      </trkpt>
      <trkpt lat="44.14401" lon="5.37621">
        <ele>1107.2</ele>
        <time>2022-06-02T12:45:09Z</time>
      </trkpt>
      <trkpt lat="44.14398" lon="5.37612">
        <ele>1106.4</ele>
        <time>2022-06-02T12:45:15Z</time>
      </trkpt>
      <trkpt lat="44.14396" lon="5.37609">
        <ele>1106</ele>
        <time>2022-06-02T12:45:18Z</time>
      </trkpt>
      <trkpt lat="44.14393" lon="5.37603">
        <ele>1105.2</ele>
        <time>2022-06-02T12:45:23Z</time>
      </trkpt>
      <trkpt lat="44.14392" lon="5.37598">
        <ele>1104.5</ele>
        <time>2022-06-02T12:45:27Z</time>
      </trkpt>
      <trkpt lat="44.14383" lon="5.37584">
        <ele>1102.5</ele>
        <time>2022-06-02T12:45:39Z</time>
      </trkpt>
      <trkpt lat="44.14373" lon="5.37566">
        <ele>1100.8</ele>
        <time>2022-06-02T12:45:52Z</time>
      </trkpt>
      <trkpt lat="44.14364" lon="5.37551">
        <ele>1098.7</ele>
        <time>2022-06-02T12:46:06Z</time>
      </trkpt>
      <trkpt lat="44.14355" lon="5.37538">
        <ele>1097</ele>
        <time>2022-06-02T12:46:20Z</time>
      </trkpt>
      <trkpt lat="44.14346" lon="5.37524">
        <ele>1095.2</ele>
        <time>2022-06-02T12:46:33Z</time>
      </trkpt>
      <trkpt lat="44.14336" lon="5.37515">
        <ele>1093.5</ele>
        <time>2022-06-02T12:46:47Z</time>
      </trkpt>
      <trkpt lat="44.14325" lon="5.37503">
        <ele>1091.2</ele>
        <time>2022-06-02T12:47:04Z</time>
      </trkpt>
      <trkpt lat="44.14311" lon="5.37493">
        <ele>1089.6</ele>
        <time>2022-06-02T12:47:21Z</time>
      </trkpt>
      <trkpt lat="44.14298" lon="5.37479">
        <ele>1087.9</ele>
        <time>2022-06-02T12:47:38Z</time>
      </trkpt>
      <trkpt lat="44.14284" lon="5.3746">
        <ele>1085.7</ele>
        <time>2022-06-02T12:47:57Z</time>
      </trkpt>
      <trkpt lat="44.14274" lon="5.37448">
        <ele>1083.7</ele>
        <time>2022-06-02T12:48:13Z</time>
      </trkpt>
      <trkpt lat="44.1426" lon="5.37434">
        <ele>1082.4</ele>
        <time>2022-06-02T12:48:30Z</time>
      </trkpt>
      <trkpt lat="44.14243" lon="5.37418">
        <ele>1079.2</ele>
        <time>2022-06-02T12:48:50Z</time>
      </trkpt>
      <trkpt lat="44.14232" lon="5.37407">
        <ele>1078.1</ele>
        <time>2022-06-02T12:49:06Z</time>
      </trkpt>
      <trkpt lat="44.14219" lon="5.37397">
        <ele>1075.9</ele>
        <time>2022-06-02T12:49:22Z</time>
      </trkpt>
      <trkpt lat="44.14201" lon="5.37393">
        <ele>1073.4</ele>
        <time>2022-06-02T12:49:41Z</time>
      </trkpt>
      <trkpt lat="44.14186" lon="5.37385">
        <ele>1070.5</ele>
        <time>2022-06-02T12:49:58Z</time>
      </trkpt>
      <trkpt lat="44.14174" lon="5.37364">
        <ele>1067.9</ele>
        <time>2022-06-02T12:50:17Z</time>
      </trkpt>
      <trkpt lat="44.14172" lon="5.37341">
        <ele>1067.1</ele>
        <time>2022-06-02T12:50:34Z</time>
      </trkpt>
      <trkpt lat="44.14161" lon="5.37328">
        <ele>1065.5</ele>
        <time>2022-06-02T12:50:49Z</time>
      </trkpt>
      <trkpt lat="44.14151" lon="5.37325">
        <ele>1065</ele>
        <time>2022-06-02T12:51:08Z</time>
      </trkpt>
      <trkpt lat="44.1415" lon="5.37324">
        <ele>1065</ele>
        <time>2022-06-02T12:51:25Z</time>
      </trkpt>
      <trkpt lat="44.14144" lon="5.37329">
        <ele>1064.1</ele>
        <time>2022-06-02T12:51:50Z</time>
      </trkpt>
      <trkpt lat="44.14141" lon="5.37332">
        <ele>1063.4</ele>
        <time>2022-06-02T12:52:14Z</time>
      </trkpt>
      <trkpt lat="44.14144" lon="5.37334">
        <ele>1063.6</ele>
        <time>2022-06-02T12:52:40Z</time>
      </trkpt>
      <trkpt lat="44.14146" lon="5.37343">
        <ele>1063.9</ele>
        <time>2022-06-02T12:53:05Z</time>
      </trkpt>
      <trkpt lat="44.14144" lon="5.37339">
        <ele>1063.6</ele>
        <time>2022-06-02T12:53:34Z</time>
      </trkpt>
      <trkpt lat="44.14143" lon="5.37334">
        <ele>1063.4</ele>
        <time>2022-06-02T12:54:00Z</time>
      </trkpt>
      <trkpt lat="44.14148" lon="5.3733">
        <ele>1064.3</ele>
        <time>2022-06-02T12:54:26Z</time>
      </trkpt>
      <trkpt lat="44.14141" lon="5.37337">
        <ele>1063.2</ele>
        <time>2022-06-02T12:54:48Z</time>
      </trkpt>
      <trkpt lat="44.14136" lon="5.37337">
        <ele>1062.9</ele>
        <time>2022-06-02T12:54:53Z</time>
      </trkpt>
      <trkpt lat="44.1413" lon="5.37358">
        <ele>1061.8</ele>
        <time>2022-06-02T12:55:14Z</time>
      </trkpt>
      <trkpt lat="44.14128" lon="5.37362">
        <ele>1061.4</ele>
        <time>2022-06-02T12:55:17Z</time>
      </trkpt>
      <trkpt lat="44.1412" lon="5.37382">
        <ele>1059.8</ele>
        <time>2022-06-02T12:55:33Z</time>
      </trkpt>
      <trkpt lat="44.14118" lon="5.37384">
        <ele>1059.4</ele>
        <time>2022-06-02T12:55:35Z</time>
      </trkpt>
      <trkpt lat="44.14112" lon="5.37385">
        <ele>1058.3</ele>
        <time>2022-06-02T12:55:41Z</time>
      </trkpt>
      <trkpt lat="44.14107" lon="5.37376">
        <ele>1058</ele>
        <time>2022-06-02T12:55:47Z</time>
      </trkpt>
      <trkpt lat="44.14104" lon="5.37367">
        <ele>1058</ele>
        <time>2022-06-02T12:55:54Z</time>
      </trkpt>
      <trkpt lat="44.14095" lon="5.37363">
        <ele>1057.2</ele>
        <time>2022-06-02T12:56:04Z</time>
      </trkpt>
      <trkpt lat="44.14089" lon="5.37358">
        <ele>1057.1</ele>
        <time>2022-06-02T12:56:10Z</time>
      </trkpt>
      <trkpt lat="44.14083" lon="5.37353">
        <ele>1057.4</ele>
        <time>2022-06-02T12:56:15Z</time>
      </trkpt>
      <trkpt lat="44.14079" lon="5.37351">
        <ele>1057.5</ele>
        <time>2022-06-02T12:56:20Z</time>
      </trkpt>
      <trkpt lat="44.14064" lon="5.37354">
        <ele>1055.9</ele>
        <time>2022-06-02T12:56:32Z</time>
      </trkpt>
      <trkpt lat="44.14068" lon="5.37374">
        <ele>1054.2</ele>
        <time>2022-06-02T12:56:44Z</time>
      </trkpt>
      <trkpt lat="44.14062" lon="5.37395">
        <ele>1053.4</ele>
        <time>2022-06-02T12:57:00Z</time>
      </trkpt>
      <trkpt lat="44.14052" lon="5.37377">
        <ele>1052.3</ele>
        <time>2022-06-02T12:57:16Z</time>
      </trkpt>
      <trkpt lat="44.14039" lon="5.37363">
        <ele>1051.5</ele>
        <time>2022-06-02T12:57:30Z</time>
      </trkpt>
      <trkpt lat="44.14019" lon="5.37356">
        <ele>1050.2</ele>
        <time>2022-06-02T12:57:51Z</time>
      </trkpt>
      <trkpt lat="44.14009" lon="5.37354">
        <ele>1049.5</ele>
        <time>2022-06-02T12:58:01Z</time>
      </trkpt>
      <trkpt lat="44.13987" lon="5.37356">
        <ele>1046.6</ele>
        <time>2022-06-02T12:58:24Z</time>
      </trkpt>
      <trkpt lat="44.13972" lon="5.37348">
        <ele>1046.3</ele>
        <time>2022-06-02T12:58:38Z</time>
      </trkpt>
      <trkpt lat="44.13965" lon="5.37344">
        <ele>1046.4</ele>
        <time>2022-06-02T12:58:45Z</time>
      </trkpt>
      <trkpt lat="44.13939" lon="5.37339">
        <ele>1044.6</ele>
        <time>2022-06-02T12:59:06Z</time>
      </trkpt>
      <trkpt lat="44.13933" lon="5.37339">
        <ele>1043.9</ele>
        <time>2022-06-02T12:59:11Z</time>
      </trkpt>
      <trkpt lat="44.13925" lon="5.37337">
        <ele>1043.4</ele>
        <time>2022-06-02T12:59:18Z</time>
      </trkpt>
      <trkpt lat="44.13908" lon="5.37338">
        <ele>1042</ele>
        <time>2022-06-02T12:59:34Z</time>
      </trkpt>
      <trkpt lat="44.13897" lon="5.37352">
        <ele>1039.6</ele>
        <time>2022-06-02T12:59:52Z</time>
      </trkpt>
      <trkpt lat="44.13885" lon="5.37373">
        <ele>1037.6</ele>
        <time>2022-06-02T13:00:09Z</time>
      </trkpt>
      <trkpt lat="44.13871" lon="5.37377">
        <ele>1036.4</ele>
        <time>2022-06-02T13:00:21Z</time>
      </trkpt>
      <trkpt lat="44.13859" lon="5.37373">
        <ele>1035.2</ele>
        <time>2022-06-02T13:00:33Z</time>
      </trkpt>
      <trkpt lat="44.13847" lon="5.37366">
        <ele>1034.1</ele>
        <time>2022-06-02T13:00:44Z</time>
      </trkpt>
      <trkpt lat="44.13836" lon="5.37362">
        <ele>1033.2</ele>
        <time>2022-06-02T13:00:54Z</time>
      </trkpt>
      <trkpt lat="44.13834" lon="5.37361">
        <ele>1033.1</ele>
        <time>2022-06-02T13:00:56Z</time>
      </trkpt>
      <trkpt lat="44.13817" lon="5.37365">
        <ele>1031.8</ele>
        <time>2022-06-02T13:01:11Z</time>
      </trkpt>
      <trkpt lat="44.13805" lon="5.37367">
        <ele>1031</ele>
        <time>2022-06-02T13:01:22Z</time>
      </trkpt>
      <trkpt lat="44.13801" lon="5.37368">
        <ele>1030.8</ele>
        <time>2022-06-02T13:01:25Z</time>
      </trkpt>
      <trkpt lat="44.13783" lon="5.37368">
        <ele>1029.8</ele>
        <time>2022-06-02T13:01:40Z</time>
      </trkpt>
      <trkpt lat="44.13773" lon="5.3737">
        <ele>1029.1</ele>
        <time>2022-06-02T13:01:51Z</time>
      </trkpt>
      <trkpt lat="44.13759" lon="5.37374">
        <ele>1028.1</ele>
        <time>2022-06-02T13:02:04Z</time>
      </trkpt>
      <trkpt lat="44.13755" lon="5.37382">
        <ele>1027.1</ele>
        <time>2022-06-02T13:02:11Z</time>
      </trkpt>
      <trkpt lat="44.13749" lon="5.37389">
        <ele>1026</ele>
        <time>2022-06-02T13:02:21Z</time>
      </trkpt>
      <trkpt lat="44.13753" lon="5.37389">
        <ele>1026.2</ele>
        <time>2022-06-02T13:02:38Z</time>
      </trkpt>
      <trkpt lat="44.13752" lon="5.37389">
        <ele>1026.2</ele>
        <time>2022-06-02T13:02:40Z</time>
      </trkpt>
      <trkpt lat="44.13742" lon="5.37391">
        <ele>1025.9</ele>
        <time>2022-06-02T13:02:51Z</time>
      </trkpt>
      <trkpt lat="44.13731" lon="5.37391">
        <ele>1025</ele>
        <time>2022-06-02T13:03:01Z</time>
      </trkpt>
      <trkpt lat="44.13719" lon="5.37383">
        <ele>1024.3</ele>
        <time>2022-06-02T13:03:13Z</time>
      </trkpt>
      <trkpt lat="44.13704" lon="5.37376">
        <ele>1023.1</ele>
        <time>2022-06-02T13:03:28Z</time>
      </trkpt>
      <trkpt lat="44.13694" lon="5.37377">
        <ele>1021.8</ele>
        <time>2022-06-02T13:03:41Z</time>
      </trkpt>
      <trkpt lat="44.13695" lon="5.3738">
        <ele>1021.7</ele>
        <time>2022-06-02T13:03:58Z</time>
      </trkpt>
      <trkpt lat="44.13701" lon="5.37383">
        <ele>1022.2</ele>
        <time>2022-06-02T13:04:14Z</time>
      </trkpt>
      <trkpt lat="44.13695" lon="5.37382">
        <ele>1021.6</ele>
        <time>2022-06-02T13:04:51Z</time>
      </trkpt>
      <trkpt lat="44.13691" lon="5.3738">
        <ele>1021.5</ele>
        <time>2022-06-02T13:05:05Z</time>
      </trkpt>
      <trkpt lat="44.1369" lon="5.37388">
        <ele>1020.9</ele>
        <time>2022-06-02T13:05:42Z</time>
      </trkpt>
      <trkpt lat="44.13692" lon="5.37385">
        <ele>1021.2</ele>
        <time>2022-06-02T13:06:03Z</time>
      </trkpt>
      <trkpt lat="44.13686" lon="5.37383">
        <ele>1021.1</ele>
        <time>2022-06-02T13:06:32Z</time>
      </trkpt>
      <trkpt lat="44.13683" lon="5.37385">
        <ele>1020.8</ele>
        <time>2022-06-02T13:06:37Z</time>
      </trkpt>
      <trkpt lat="44.1368" lon="5.37385">
        <ele>1020.7</ele>
        <time>2022-06-02T13:06:39Z</time>
      </trkpt>
      <trkpt lat="44.13673" lon="5.37385">
        <ele>1020.4</ele>
        <time>2022-06-02T13:06:46Z</time>
      </trkpt>
      <trkpt lat="44.13659" lon="5.3739">
        <ele>1019.7</ele>
        <time>2022-06-02T13:07:00Z</time>
      </trkpt>
      <trkpt lat="44.13641" lon="5.37389">
        <ele>1018.2</ele>
        <time>2022-06-02T13:07:17Z</time>
      </trkpt>
      <trkpt lat="44.13626" lon="5.37396">
        <ele>1018.5</ele>
        <time>2022-06-02T13:07:33Z</time>
      </trkpt>
      <trkpt lat="44.13606" lon="5.37397">
        <ele>1016.9</ele>
        <time>2022-06-02T13:07:50Z</time>
      </trkpt>
      <trkpt lat="44.13592" lon="5.37401">
        <ele>1015.8</ele>
        <time>2022-06-02T13:08:05Z</time>
      </trkpt>
      <trkpt lat="44.13574" lon="5.37403">
        <ele>1014.2</ele>
        <time>2022-06-02T13:08:21Z</time>
      </trkpt>
      <trkpt lat="44.13558" lon="5.37404">
        <ele>1012.8</ele>
        <time>2022-06-02T13:08:36Z</time>
      </trkpt>
      <trkpt lat="44.1355" lon="5.37408">
        <ele>1012.2</ele>
        <time>2022-06-02T13:08:49Z</time>
      </trkpt>
      <trkpt lat="44.1354" lon="5.3742">
        <ele>1012.6</ele>
        <time>2022-06-02T13:09:04Z</time>
      </trkpt>
      <trkpt lat="44.13531" lon="5.37431">
        <ele>1013.9</ele>
        <time>2022-06-02T13:09:20Z</time>
      </trkpt>
      <trkpt lat="44.13525" lon="5.37443">
        <ele>1015.4</ele>
        <time>2022-06-02T13:09:35Z</time>
      </trkpt>
      <trkpt lat="44.13528" lon="5.37443">
        <ele>1015.8</ele>
        <time>2022-06-02T13:09:53Z</time>
      </trkpt>
      <trkpt lat="44.13527" lon="5.37453">
        <ele>1017.1</ele>
        <time>2022-06-02T13:10:10Z</time>
      </trkpt>
      <trkpt lat="44.13527" lon="5.37468">
        <ele>1019.3</ele>
        <time>2022-06-02T13:10:25Z</time>
      </trkpt>
      <trkpt lat="44.13532" lon="5.37479">
        <ele>1021.1</ele>
        <time>2022-06-02T13:10:39Z</time>
      </trkpt>
      <trkpt lat="44.13539" lon="5.37496">
        <ele>1023.7</ele>
        <time>2022-06-02T13:10:56Z</time>
      </trkpt>
      <trkpt lat="44.13546" lon="5.37519">
        <ele>1026</ele>
        <time>2022-06-02T13:11:17Z</time>
      </trkpt>
      <trkpt lat="44.13554" lon="5.37541">
        <ele>1027.7</ele>
        <time>2022-06-02T13:11:37Z</time>
      </trkpt>
      <trkpt lat="44.1356" lon="5.37557">
        <ele>1029.3</ele>
        <time>2022-06-02T13:11:51Z</time>
      </trkpt>
      <trkpt lat="44.13557" lon="5.37571">
        <ele>1028.4</ele>
        <time>2022-06-02T13:12:06Z</time>
      </trkpt>
      <trkpt lat="44.13551" lon="5.37585">
        <ele>1027</ele>
        <time>2022-06-02T13:12:22Z</time>
      </trkpt>
      <trkpt lat="44.13548" lon="5.37588">
        <ele>1026.5</ele>
        <time>2022-06-02T13:12:26Z</time>
      </trkpt>
      <trkpt lat="44.13541" lon="5.37608">
        <ele>1025.8</ele>
        <time>2022-06-02T13:12:42Z</time>
      </trkpt>
      <trkpt lat="44.13539" lon="5.37621">
        <ele>1026.9</ele>
        <time>2022-06-02T13:12:56Z</time>
      </trkpt>
      <trkpt lat="44.13533" lon="5.37629">
        <ele>1027.2</ele>
        <time>2022-06-02T13:13:13Z</time>
      </trkpt>
      <trkpt lat="44.13517" lon="5.37639">
        <ele>1028</ele>
        <time>2022-06-02T13:13:32Z</time>
      </trkpt>
      <trkpt lat="44.13503" lon="5.3765">
        <ele>1030</ele>
        <time>2022-06-02T13:13:52Z</time>
      </trkpt>
      <trkpt lat="44.13501" lon="5.37654">
        <ele>1030.7</ele>
        <time>2022-06-02T13:14:04Z</time>
      </trkpt>
      <trkpt lat="44.13502" lon="5.37657">
        <ele>1031.2</ele>
        <time>2022-06-02T13:14:13Z</time>
      </trkpt>
      <trkpt lat="44.13495" lon="5.37661">
        <ele>1032.2</ele>
        <time>2022-06-02T13:14:28Z</time>
      </trkpt>
      <trkpt lat="44.13492" lon="5.37661">
        <ele>1032.3</ele>
        <time>2022-06-02T13:14:31Z</time>
      </trkpt>
      <trkpt lat="44.13483" lon="5.3767">
        <ele>1034.2</ele>
        <time>2022-06-02T13:14:45Z</time>
      </trkpt>
      <trkpt lat="44.13478" lon="5.37679">
        <ele>1036</ele>
        <time>2022-06-02T13:14:55Z</time>
      </trkpt>
      <trkpt lat="44.13468" lon="5.37696">
        <ele>1039.4</ele>
        <time>2022-06-02T13:15:14Z</time>
      </trkpt>
      <trkpt lat="44.13466" lon="5.3771">
        <ele>1041.3</ele>
        <time>2022-06-02T13:15:32Z</time>
      </trkpt>
      <trkpt lat="44.13461" lon="5.3773">
        <ele>1044.1</ele>
        <time>2022-06-02T13:15:51Z</time>
      </trkpt>
      <trkpt lat="44.13454" lon="5.37751">
        <ele>1047.1</ele>
        <time>2022-06-02T13:16:12Z</time>
      </trkpt>
      <trkpt lat="44.13442" lon="5.37771">
        <ele>1049.3</ele>
        <time>2022-06-02T13:16:35Z</time>
      </trkpt>
      <trkpt lat="44.13436" lon="5.37792">
        <ele>1051</ele>
        <time>2022-06-02T13:16:54Z</time>
      </trkpt>
      <trkpt lat="44.13428" lon="5.37815">
        <ele>1053</ele>
        <time>2022-06-02T13:17:15Z</time>
      </trkpt>
      <trkpt lat="44.1342" lon="5.37836">
        <ele>1055.1</ele>
        <time>2022-06-02T13:17:34Z</time>
      </trkpt>
      <trkpt lat="44.13417" lon="5.37861">
        <ele>1056</ele>
        <time>2022-06-02T13:17:53Z</time>
      </trkpt>
      <trkpt lat="44.13415" lon="5.37894">
        <ele>1056</ele>
        <time>2022-06-02T13:18:13Z</time>
      </trkpt>
      <trkpt lat="44.13417" lon="5.37908">
        <ele>1056</ele>
        <time>2022-06-02T13:18:21Z</time>
      </trkpt>
      <trkpt lat="44.13422" lon="5.37942">
        <ele>1055.3</ele>
        <time>2022-06-02T13:18:42Z</time>
      </trkpt>
      <trkpt lat="44.13425" lon="5.37954">
        <ele>1055.1</ele>
        <time>2022-06-02T13:18:50Z</time>
      </trkpt>
      <trkpt lat="44.13435" lon="5.37977">
        <ele>1055</ele>
        <time>2022-06-02T13:19:05Z</time>
      </trkpt>
      <trkpt lat="44.13443" lon="5.37985">
        <ele>1055</ele>
        <time>2022-06-02T13:19:18Z</time>
      </trkpt>
      <trkpt lat="44.13442" lon="5.37986">
        <ele>1054.9</ele>
        <time>2022-06-02T13:19:55Z</time>
      </trkpt>
      <trkpt lat="44.13439" lon="5.37978">
        <ele>1055.2</ele>
        <time>2022-06-02T13:20:39Z</time>
      </trkpt>
      <trkpt lat="44.13444" lon="5.37982">
        <ele>1055.3</ele>
        <time>2022-06-02T13:21:13Z</time>
      </trkpt>
      <trkpt lat="44.13445" lon="5.37995">
        <ele>1054.4</ele>
        <time>2022-06-02T13:21:32Z</time>
      </trkpt>
      <trkpt lat="44.13442" lon="5.37997">
        <ele>1054.1</ele>
        <time>2022-06-02T13:21:49Z</time>
      </trkpt>
      <trkpt lat="44.13441" lon="5.38017">
        <ele>1053.2</ele>
        <time>2022-06-02T13:22:06Z</time>
      </trkpt>
      <trkpt lat="44.13437" lon="5.38026">
        <ele>1052.5</ele>
        <time>2022-06-02T13:22:20Z</time>
      </trkpt>
      <trkpt lat="44.13429" lon="5.38037">
        <ele>1051.2</ele>
        <time>2022-06-02T13:22:32Z</time>
      </trkpt>
      <trkpt lat="44.13421" lon="5.3805">
        <ele>1049.7</ele>
        <time>2022-06-02T13:22:47Z</time>
      </trkpt>
      <trkpt lat="44.1342" lon="5.38051">
        <ele>1049.6</ele>
        <time>2022-06-02T13:23:03Z</time>
      </trkpt>
      <trkpt lat="44.13411" lon="5.38059">
        <ele>1048.5</ele>
        <time>2022-06-02T13:23:20Z</time>
      </trkpt>
      <trkpt lat="44.13397" lon="5.3807">
        <ele>1047.3</ele>
        <time>2022-06-02T13:23:36Z</time>
      </trkpt>
      <trkpt lat="44.13388" lon="5.3808">
        <ele>1046.2</ele>
        <time>2022-06-02T13:23:47Z</time>
      </trkpt>
      <trkpt lat="44.13376" lon="5.38092">
        <ele>1044.3</ele>
        <time>2022-06-02T13:24:01Z</time>
      </trkpt>
      <trkpt lat="44.13369" lon="5.38098">
        <ele>1043.4</ele>
        <time>2022-06-02T13:24:10Z</time>
      </trkpt>
      <trkpt lat="44.13352" lon="5.38111">
        <ele>1041.7</ele>
        <time>2022-06-02T13:24:26Z</time>
      </trkpt>
      <trkpt lat="44.13355" lon="5.38115">
        <ele>1041.4</ele>
        <time>2022-06-02T13:24:36Z</time>
      </trkpt>
      <trkpt lat="44.13352" lon="5.38114">
        <ele>1041.4</ele>
        <time>2022-06-02T13:24:56Z</time>
      </trkpt>
      <trkpt lat="44.13338" lon="5.38122">
        <ele>1040</ele>
        <time>2022-06-02T13:25:11Z</time>
      </trkpt>
      <trkpt lat="44.13326" lon="5.38135">
        <ele>1038.1</ele>
        <time>2022-06-02T13:25:24Z</time>
      </trkpt>
      <trkpt lat="44.13325" lon="5.38136">
        <ele>1038</ele>
        <time>2022-06-02T13:25:25Z</time>
      </trkpt>
      <trkpt lat="44.13318" lon="5.38142">
        <ele>1037.2</ele>
        <time>2022-06-02T13:25:32Z</time>
      </trkpt>
      <trkpt lat="44.13309" lon="5.38156">
        <ele>1035.4</ele>
        <time>2022-06-02T13:25:45Z</time>
      </trkpt>
      <trkpt lat="44.13308" lon="5.3816">
        <ele>1034.9</ele>
        <time>2022-06-02T13:25:48Z</time>
      </trkpt>
      <trkpt lat="44.13301" lon="5.38177">
        <ele>1033.1</ele>
        <time>2022-06-02T13:26:02Z</time>
      </trkpt>
      <trkpt lat="44.13298" lon="5.38182">
        <ele>1032.6</ele>
        <time>2022-06-02T13:26:06Z</time>
      </trkpt>
      <trkpt lat="44.13286" lon="5.38203">
        <ele>1030.4</ele>
        <time>2022-06-02T13:26:23Z</time>
      </trkpt>
      <trkpt lat="44.13281" lon="5.38214">
        <ele>1029</ele>
        <time>2022-06-02T13:26:31Z</time>
      </trkpt>
      <trkpt lat="44.13277" lon="5.3822">
        <ele>1028.2</ele>
        <time>2022-06-02T13:26:36Z</time>
      </trkpt>
      <trkpt lat="44.13268" lon="5.38235">
        <ele>1026.7</ele>
        <time>2022-06-02T13:26:49Z</time>
      </trkpt>
      <trkpt lat="44.13257" lon="5.38252">
        <ele>1025.1</ele>
        <time>2022-06-02T13:27:05Z</time>
      </trkpt>
      <trkpt lat="44.13246" lon="5.38269">
        <ele>1023.3</ele>
        <time>2022-06-02T13:27:21Z</time>
      </trkpt>
      <trkpt lat="44.13235" lon="5.38284">
        <ele>1021.4</ele>
        <time>2022-06-02T13:27:34Z</time>
      </trkpt>
      <trkpt lat="44.13226" lon="5.38296">
        <ele>1019.9</ele>
        <time>2022-06-02T13:27:45Z</time>
      </trkpt>
      <trkpt lat="44.13216" lon="5.38308">
        <ele>1018.4</ele>
        <time>2022-06-02T13:27:58Z</time>
      </trkpt>
      <trkpt lat="44.13203" lon="5.38321">
        <ele>1016.5</ele>
        <time>2022-06-02T13:28:12Z</time>
      </trkpt>
      <trkpt lat="44.13191" lon="5.38332">
        <ele>1014.7</ele>
        <time>2022-06-02T13:28:29Z</time>
      </trkpt>
      <trkpt lat="44.13182" lon="5.38339">
        <ele>1013.1</ele>
        <time>2022-06-02T13:28:41Z</time>
      </trkpt>
      <trkpt lat="44.13175" lon="5.38347">
        <ele>1011.8</ele>
        <time>2022-06-02T13:28:55Z</time>
      </trkpt>
      <trkpt lat="44.13168" lon="5.38352">
        <ele>1010.8</ele>
        <time>2022-06-02T13:29:05Z</time>
      </trkpt>
      <trkpt lat="44.13156" lon="5.38368">
        <ele>1008.5</ele>
        <time>2022-06-02T13:29:23Z</time>
      </trkpt>
      <trkpt lat="44.13149" lon="5.38378">
        <ele>1006.9</ele>
        <time>2022-06-02T13:29:34Z</time>
      </trkpt>
      <trkpt lat="44.13144" lon="5.38383">
        <ele>1006</ele>
        <time>2022-06-02T13:29:41Z</time>
      </trkpt>
      <trkpt lat="44.13141" lon="5.38384">
        <ele>1005.7</ele>
        <time>2022-06-02T13:29:44Z</time>
      </trkpt>
      <trkpt lat="44.13135" lon="5.38388">
        <ele>1004.8</ele>
        <time>2022-06-02T13:29:50Z</time>
      </trkpt>
      <trkpt lat="44.13134" lon="5.38391">
        <ele>1004.5</ele>
        <time>2022-06-02T13:29:53Z</time>
      </trkpt>
      <trkpt lat="44.13127" lon="5.38399">
        <ele>1003.4</ele>
        <time>2022-06-02T13:30:01Z</time>
      </trkpt>
      <trkpt lat="44.13121" lon="5.38404">
        <ele>1002.6</ele>
        <time>2022-06-02T13:30:07Z</time>
      </trkpt>
      <trkpt lat="44.13111" lon="5.38414">
        <ele>1001.2</ele>
        <time>2022-06-02T13:30:18Z</time>
      </trkpt>
      <trkpt lat="44.13106" lon="5.38418">
        <ele>1000.2</ele>
        <time>2022-06-02T13:30:23Z</time>
      </trkpt>
      <trkpt lat="44.13097" lon="5.38424">
        <ele>998.6</ele>
        <time>2022-06-02T13:30:35Z</time>
      </trkpt>
      <trkpt lat="44.13088" lon="5.38428">
        <ele>997.2</ele>
        <time>2022-06-02T13:30:50Z</time>
      </trkpt>
      <trkpt lat="44.13085" lon="5.38429">
        <ele>996.8</ele>
        <time>2022-06-02T13:31:05Z</time>
      </trkpt>
      <trkpt lat="44.1308" lon="5.38427">
        <ele>996.1</ele>
        <time>2022-06-02T13:31:21Z</time>
      </trkpt>
      <trkpt lat="44.13083" lon="5.38436">
        <ele>996.3</ele>
        <time>2022-06-02T13:31:35Z</time>
      </trkpt>
      <trkpt lat="44.13082" lon="5.38449">
        <ele>995.7</ele>
        <time>2022-06-02T13:31:52Z</time>
      </trkpt>
      <trkpt lat="44.13082" lon="5.38455">
        <ele>995.4</ele>
        <time>2022-06-02T13:32:25Z</time>
      </trkpt>
      <trkpt lat="44.13082" lon="5.38458">
        <ele>995.3</ele>
        <time>2022-06-02T13:32:36Z</time>
      </trkpt>
      <trkpt lat="44.13082" lon="5.38462">
        <ele>995.2</ele>
        <time>2022-06-02T13:32:39Z</time>
      </trkpt>
      <trkpt lat="44.13081" lon="5.38489">
        <ele>994.1</ele>
        <time>2022-06-02T13:32:57Z</time>
      </trkpt>
      <trkpt lat="44.13081" lon="5.38511">
        <ele>993.4</ele>
        <time>2022-06-02T13:33:12Z</time>
      </trkpt>
      <trkpt lat="44.13081" lon="5.38525">
        <ele>992.9</ele>
        <time>2022-06-02T13:33:26Z</time>
      </trkpt>
      <trkpt lat="44.1308" lon="5.38558">
        <ele>991.6</ele>
        <time>2022-06-02T13:33:49Z</time>
      </trkpt>
      <trkpt lat="44.13083" lon="5.38575">
        <ele>990.6</ele>
        <time>2022-06-02T13:34:08Z</time>
      </trkpt>
      <trkpt lat="44.13082" lon="5.38579">
        <ele>990.3</ele>
        <time>2022-06-02T13:34:31Z</time>
      </trkpt>
      <trkpt lat="44.13087" lon="5.38583">
        <ele>990</ele>
        <time>2022-06-02T13:34:46Z</time>
      </trkpt>
      <trkpt lat="44.13097" lon="5.38587">
        <ele>989.6</ele>
        <time>2022-06-02T13:35:01Z</time>
      </trkpt>
      <trkpt lat="44.13108" lon="5.38592">
        <ele>989.1</ele>
        <time>2022-06-02T13:35:19Z</time>
      </trkpt>
      <trkpt lat="44.13129" lon="5.38602">
        <ele>988</ele>
        <time>2022-06-02T13:35:52Z</time>
      </trkpt>
      <trkpt lat="44.13147" lon="5.38608">
        <ele>986.8</ele>
        <time>2022-06-02T13:36:09Z</time>
      </trkpt>
      <trkpt lat="44.13157" lon="5.38611">
        <ele>985.7</ele>
        <time>2022-06-02T13:36:19Z</time>
      </trkpt>
      <trkpt lat="44.13168" lon="5.38612">
        <ele>984.7</ele>
        <time>2022-06-02T13:36:31Z</time>
      </trkpt>
      <trkpt lat="44.13182" lon="5.38612">
        <ele>983.7</ele>
        <time>2022-06-02T13:36:45Z</time>
      </trkpt>
      <trkpt lat="44.13201" lon="5.3861">
        <ele>982.7</ele>
        <time>2022-06-02T13:37:02Z</time>
      </trkpt>
      <trkpt lat="44.13215" lon="5.38609">
        <ele>981.9</ele>
        <time>2022-06-02T13:37:14Z</time>
      </trkpt>
      <trkpt lat="44.13222" lon="5.38608">
        <ele>981.6</ele>
        <time>2022-06-02T13:37:25Z</time>
      </trkpt>
      <trkpt lat="44.13239" lon="5.38605">
        <ele>981.4</ele>
        <time>2022-06-02T13:37:41Z</time>
      </trkpt>
      <trkpt lat="44.13259" lon="5.386">
        <ele>980.3</ele>
        <time>2022-06-02T13:38:01Z</time>
      </trkpt>
      <trkpt lat="44.13276" lon="5.38596">
        <ele>978.4</ele>
        <time>2022-06-02T13:38:15Z</time>
      </trkpt>
      <trkpt lat="44.13282" lon="5.38598">
        <ele>978.6</ele>
        <time>2022-06-02T13:38:20Z</time>
      </trkpt>
      <trkpt lat="44.13283" lon="5.38599">
        <ele>978.7</ele>
        <time>2022-06-02T13:38:23Z</time>
      </trkpt>
      <trkpt lat="44.13289" lon="5.38605">
        <ele>978.9</ele>
        <time>2022-06-02T13:38:35Z</time>
      </trkpt>
      <trkpt lat="44.13295" lon="5.38611">
        <ele>979.1</ele>
        <time>2022-06-02T13:38:50Z</time>
      </trkpt>
      <trkpt lat="44.13301" lon="5.38622">
        <ele>978.3</ele>
        <time>2022-06-02T13:39:05Z</time>
      </trkpt>
      <trkpt lat="44.13302" lon="5.38626">
        <ele>977.8</ele>
        <time>2022-06-02T13:39:45Z</time>
      </trkpt>
      <trkpt lat="44.13304" lon="5.3863">
        <ele>977.4</ele>
        <time>2022-06-02T13:40:03Z</time>
      </trkpt>
      <trkpt lat="44.13313" lon="5.38639">
        <ele>976.3</ele>
        <time>2022-06-02T13:40:28Z</time>
      </trkpt>
      <trkpt lat="44.13327" lon="5.3865">
        <ele>975.5</ele>
        <time>2022-06-02T13:40:46Z</time>
      </trkpt>
      <trkpt lat="44.13331" lon="5.38662">
        <ele>974.4</ele>
        <time>2022-06-02T13:41:00Z</time>
      </trkpt>
      <trkpt lat="44.13322" lon="5.3867">
        <ele>973.1</ele>
        <time>2022-06-02T13:41:10Z</time>
      </trkpt>
      <trkpt lat="44.13309" lon="5.38675">
        <ele>971.9</ele>
        <time>2022-06-02T13:41:23Z</time>
      </trkpt>
      <trkpt lat="44.13299" lon="5.38683">
        <ele>970.7</ele>
        <time>2022-06-02T13:41:37Z</time>
      </trkpt>
      <trkpt lat="44.13273" lon="5.38699">
        <ele>967.5</ele>
        <time>2022-06-02T13:42:00Z</time>
      </trkpt>
      <trkpt lat="44.13265" lon="5.38706">
        <ele>966.6</ele>
        <time>2022-06-02T13:42:09Z</time>
      </trkpt>
      <trkpt lat="44.13251" lon="5.38713">
        <ele>965.1</ele>
        <time>2022-06-02T13:42:23Z</time>
      </trkpt>
      <trkpt lat="44.13246" lon="5.3872">
        <ele>964.7</ele>
        <time>2022-06-02T13:42:38Z</time>
      </trkpt>
      <trkpt lat="44.13228" lon="5.38722">
        <ele>963.4</ele>
        <time>2022-06-02T13:42:56Z</time>
      </trkpt>
      <trkpt lat="44.13216" lon="5.38726">
        <ele>962.4</ele>
        <time>2022-06-02T13:43:09Z</time>
      </trkpt>
      <trkpt lat="44.13207" lon="5.3873">
        <ele>961.5</ele>
        <time>2022-06-02T13:43:20Z</time>
      </trkpt>
      <trkpt lat="44.13189" lon="5.38742">
        <ele>959.6</ele>
        <time>2022-06-02T13:43:37Z</time>
      </trkpt>
      <trkpt lat="44.1318" lon="5.38752">
        <ele>958.6</ele>
        <time>2022-06-02T13:43:50Z</time>
      </trkpt>
      <trkpt lat="44.13164" lon="5.38763">
        <ele>957.3</ele>
        <time>2022-06-02T13:44:09Z</time>
      </trkpt>
      <trkpt lat="44.13159" lon="5.38766">
        <ele>957.1</ele>
        <time>2022-06-02T13:44:13Z</time>
      </trkpt>
      <trkpt lat="44.13151" lon="5.38774">
        <ele>956.4</ele>
        <time>2022-06-02T13:44:23Z</time>
      </trkpt>
      <trkpt lat="44.13138" lon="5.38786">
        <ele>955.8</ele>
        <time>2022-06-02T13:44:39Z</time>
      </trkpt>
      <trkpt lat="44.13127" lon="5.38796">
        <ele>955.1</ele>
        <time>2022-06-02T13:44:52Z</time>
      </trkpt>
      <trkpt lat="44.13124" lon="5.38798">
        <ele>954.7</ele>
        <time>2022-06-02T13:44:55Z</time>
      </trkpt>
      <trkpt lat="44.13113" lon="5.38805">
        <ele>952.4</ele>
        <time>2022-06-02T13:45:06Z</time>
      </trkpt>
      <trkpt lat="44.13111" lon="5.38807">
        <ele>952.2</ele>
        <time>2022-06-02T13:45:08Z</time>
      </trkpt>
      <trkpt lat="44.13095" lon="5.3883">
        <ele>952</ele>
        <time>2022-06-02T13:45:25Z</time>
      </trkpt>
      <trkpt lat="44.13088" lon="5.38837">
        <ele>951.3</ele>
        <time>2022-06-02T13:45:32Z</time>
      </trkpt>
      <trkpt lat="44.13079" lon="5.38847">
        <ele>951</ele>
        <time>2022-06-02T13:45:42Z</time>
      </trkpt>
      <trkpt lat="44.13066" lon="5.3886">
        <ele>949.9</ele>
        <time>2022-06-02T13:45:57Z</time>
      </trkpt>
      <trkpt lat="44.13064" lon="5.38862">
        <ele>949.6</ele>
        <time>2022-06-02T13:45:59Z</time>
      </trkpt>
      <trkpt lat="44.13058" lon="5.38872">
        <ele>948.9</ele>
        <time>2022-06-02T13:46:08Z</time>
      </trkpt>
      <trkpt lat="44.13048" lon="5.38884">
        <ele>948.1</ele>
        <time>2022-06-02T13:46:19Z</time>
      </trkpt>
      <trkpt lat="44.1304" lon="5.38897">
        <ele>947.4</ele>
        <time>2022-06-02T13:46:30Z</time>
      </trkpt>
      <trkpt lat="44.13028" lon="5.38911">
        <ele>945.2</ele>
        <time>2022-06-02T13:46:45Z</time>
      </trkpt>
      <trkpt lat="44.13023" lon="5.38919">
        <ele>944.9</ele>
        <time>2022-06-02T13:46:52Z</time>
      </trkpt>
      <trkpt lat="44.13007" lon="5.38932">
        <ele>943.9</ele>
        <time>2022-06-02T13:47:08Z</time>
      </trkpt>
      <trkpt lat="44.12998" lon="5.38943">
        <ele>942.9</ele>
        <time>2022-06-02T13:47:19Z</time>
      </trkpt>
      <trkpt lat="44.12992" lon="5.3895">
        <ele>942.7</ele>
        <time>2022-06-02T13:47:32Z</time>
      </trkpt>
      <trkpt lat="44.12979" lon="5.3896">
        <ele>941.3</ele>
        <time>2022-06-02T13:47:46Z</time>
      </trkpt>
      <trkpt lat="44.1297" lon="5.38971">
        <ele>939.9</ele>
        <time>2022-06-02T13:47:58Z</time>
      </trkpt>
      <trkpt lat="44.12959" lon="5.38984">
        <ele>939.5</ele>
        <time>2022-06-02T13:48:11Z</time>
      </trkpt>
      <trkpt lat="44.12947" lon="5.39004">
        <ele>938.5</ele>
        <time>2022-06-02T13:48:28Z</time>
      </trkpt>
      <trkpt lat="44.1294" lon="5.39028">
        <ele>938.5</ele>
        <time>2022-06-02T13:48:45Z</time>
      </trkpt>
      <trkpt lat="44.12938" lon="5.39042">
        <ele>938.7</ele>
        <time>2022-06-02T13:49:03Z</time>
      </trkpt>
      <trkpt lat="44.12936" lon="5.39045">
        <ele>938.5</ele>
        <time>2022-06-02T13:49:18Z</time>
      </trkpt>
      <trkpt lat="44.12932" lon="5.39045">
        <ele>938</ele>
        <time>2022-06-02T13:49:57Z</time>
      </trkpt>
      <trkpt lat="44.12919" lon="5.3906">
        <ele>936.5</ele>
        <time>2022-06-02T13:50:13Z</time>
      </trkpt>
      <trkpt lat="44.12915" lon="5.39083">
        <ele>936.9</ele>
        <time>2022-06-02T13:50:29Z</time>
      </trkpt>
      <trkpt lat="44.12908" lon="5.39104">
        <ele>935.9</ele>
        <time>2022-06-02T13:50:46Z</time>
      </trkpt>
      <trkpt lat="44.12899" lon="5.3912">
        <ele>934.5</ele>
        <time>2022-06-02T13:51:01Z</time>
      </trkpt>
      <trkpt lat="44.1289" lon="5.39141">
        <ele>931.9</ele>
        <time>2022-06-02T13:51:19Z</time>
      </trkpt>
      <trkpt lat="44.12888" lon="5.39158">
        <ele>930.6</ele>
        <time>2022-06-02T13:51:32Z</time>
      </trkpt>
      <trkpt lat="44.12888" lon="5.39179">
        <ele>928.7</ele>
        <time>2022-06-02T13:51:47Z</time>
      </trkpt>
      <trkpt lat="44.12886" lon="5.39195">
        <ele>927</ele>
        <time>2022-06-02T13:52:01Z</time>
      </trkpt>
      <trkpt lat="44.12882" lon="5.39203">
        <ele>926.5</ele>
        <time>2022-06-02T13:52:12Z</time>
      </trkpt>
      <trkpt lat="44.12879" lon="5.39222">
        <ele>924.9</ele>
        <time>2022-06-02T13:52:28Z</time>
      </trkpt>
      <trkpt lat="44.12869" lon="5.39247">
        <ele>923.1</ele>
        <time>2022-06-02T13:52:45Z</time>
      </trkpt>
      <trkpt lat="44.12862" lon="5.39261">
        <ele>921.6</ele>
        <time>2022-06-02T13:52:58Z</time>
      </trkpt>
      <trkpt lat="44.12855" lon="5.39271">
        <ele>920.7</ele>
        <time>2022-06-02T13:53:05Z</time>
      </trkpt>
      <trkpt lat="44.12844" lon="5.39294">
        <ele>918.8</ele>
        <time>2022-06-02T13:53:23Z</time>
      </trkpt>
      <trkpt lat="44.12833" lon="5.39318">
        <ele>916.8</ele>
        <time>2022-06-02T13:53:39Z</time>
      </trkpt>
      <trkpt lat="44.12825" lon="5.39343">
        <ele>915.4</ele>
        <time>2022-06-02T13:53:56Z</time>
      </trkpt>
      <trkpt lat="44.12817" lon="5.39371">
        <ele>913.5</ele>
        <time>2022-06-02T13:54:15Z</time>
      </trkpt>
      <trkpt lat="44.1281" lon="5.39394">
        <ele>912.1</ele>
        <time>2022-06-02T13:54:32Z</time>
      </trkpt>
      <trkpt lat="44.12801" lon="5.39421">
        <ele>909.5</ele>
        <time>2022-06-02T13:54:52Z</time>
      </trkpt>
      <trkpt lat="44.12795" lon="5.39447">
        <ele>907.9</ele>
        <time>2022-06-02T13:55:11Z</time>
      </trkpt>
      <trkpt lat="44.12787" lon="5.39471">
        <ele>906</ele>
        <time>2022-06-02T13:55:27Z</time>
      </trkpt>
      <trkpt lat="44.12774" lon="5.39498">
        <ele>904</ele>
        <time>2022-06-02T13:55:49Z</time>
      </trkpt>
      <trkpt lat="44.12759" lon="5.39518">
        <ele>902</ele>
        <time>2022-06-02T13:56:07Z</time>
      </trkpt>
      <trkpt lat="44.12745" lon="5.39535">
        <ele>900.1</ele>
        <time>2022-06-02T13:56:25Z</time>
      </trkpt>
      <trkpt lat="44.12735" lon="5.39552">
        <ele>898.9</ele>
        <time>2022-06-02T13:56:40Z</time>
      </trkpt>
      <trkpt lat="44.12724" lon="5.39572">
        <ele>897</ele>
        <time>2022-06-02T13:56:55Z</time>
      </trkpt>
      <trkpt lat="44.1271" lon="5.39592">
        <ele>894.7</ele>
        <time>2022-06-02T13:57:13Z</time>
      </trkpt>
      <trkpt lat="44.12696" lon="5.39612">
        <ele>892.4</ele>
        <time>2022-06-02T13:57:30Z</time>
      </trkpt>
      <trkpt lat="44.12684" lon="5.39632">
        <ele>890.4</ele>
        <time>2022-06-02T13:57:47Z</time>
      </trkpt>
      <trkpt lat="44.12677" lon="5.39652">
        <ele>889.2</ele>
        <time>2022-06-02T13:58:03Z</time>
      </trkpt>
      <trkpt lat="44.12676" lon="5.39653">
        <ele>889</ele>
        <time>2022-06-02T13:58:06Z</time>
      </trkpt>
      <trkpt lat="44.12675" lon="5.39656">
        <ele>888.8</ele>
        <time>2022-06-02T13:58:09Z</time>
      </trkpt>
      <trkpt lat="44.12665" lon="5.39675">
        <ele>886.6</ele>
        <time>2022-06-02T13:58:25Z</time>
      </trkpt>
      <trkpt lat="44.12656" lon="5.39692">
        <ele>884.7</ele>
        <time>2022-06-02T13:58:39Z</time>
      </trkpt>
      <trkpt lat="44.1265" lon="5.3971">
        <ele>883.7</ele>
        <time>2022-06-02T13:58:53Z</time>
      </trkpt>
      <trkpt lat="44.12641" lon="5.39731">
        <ele>882.4</ele>
        <time>2022-06-02T13:59:08Z</time>
      </trkpt>
      <trkpt lat="44.12635" lon="5.39753">
        <ele>880.9</ele>
        <time>2022-06-02T13:59:23Z</time>
      </trkpt>
      <trkpt lat="44.12626" lon="5.39782">
        <ele>878.8</ele>
        <time>2022-06-02T13:59:43Z</time>
      </trkpt>
      <trkpt lat="44.12618" lon="5.39808">
        <ele>878.2</ele>
        <time>2022-06-02T14:00:01Z</time>
      </trkpt>
      <trkpt lat="44.12615" lon="5.39815">
        <ele>877.7</ele>
        <time>2022-06-02T14:00:06Z</time>
      </trkpt>
      <trkpt lat="44.1261" lon="5.39831">
        <ele>876.8</ele>
        <time>2022-06-02T14:00:17Z</time>
      </trkpt>
      <trkpt lat="44.12602" lon="5.39853">
        <ele>875</ele>
        <time>2022-06-02T14:00:32Z</time>
      </trkpt>
      <trkpt lat="44.12598" lon="5.39866">
        <ele>874.3</ele>
        <time>2022-06-02T14:00:42Z</time>
      </trkpt>
      <trkpt lat="44.12593" lon="5.39882">
        <ele>873.6</ele>
        <time>2022-06-02T14:00:55Z</time>
      </trkpt>
      <trkpt lat="44.12586" lon="5.39905">
        <ele>871.9</ele>
        <time>2022-06-02T14:01:13Z</time>
      </trkpt>
      <trkpt lat="44.12578" lon="5.39922">
        <ele>869.9</ele>
        <time>2022-06-02T14:01:25Z</time>
      </trkpt>
      <trkpt lat="44.12573" lon="5.39938">
        <ele>868.7</ele>
        <time>2022-06-02T14:01:38Z</time>
      </trkpt>
      <trkpt lat="44.12573" lon="5.3995">
        <ele>868.1</ele>
        <time>2022-06-02T14:01:46Z</time>
      </trkpt>
      <trkpt lat="44.12577" lon="5.39972">
        <ele>866.6</ele>
        <time>2022-06-02T14:02:00Z</time>
      </trkpt>
      <trkpt lat="44.12586" lon="5.39989">
        <ele>864.8</ele>
        <time>2022-06-02T14:02:14Z</time>
      </trkpt>
      <trkpt lat="44.12596" lon="5.40004">
        <ele>863.1</ele>
        <time>2022-06-02T14:02:29Z</time>
      </trkpt>
      <trkpt lat="44.12609" lon="5.40022">
        <ele>860.8</ele>
        <time>2022-06-02T14:02:46Z</time>
      </trkpt>
      <trkpt lat="44.12617" lon="5.40037">
        <ele>858.6</ele>
        <time>2022-06-02T14:02:59Z</time>
      </trkpt>
      <trkpt lat="44.12626" lon="5.40051">
        <ele>856.6</ele>
        <time>2022-06-02T14:03:14Z</time>
      </trkpt>
      <trkpt lat="44.12636" lon="5.40063">
        <ele>855.1</ele>
        <time>2022-06-02T14:03:26Z</time>
      </trkpt>
      <trkpt lat="44.12647" lon="5.4008">
        <ele>853.4</ele>
        <time>2022-06-02T14:03:43Z</time>
      </trkpt>
      <trkpt lat="44.12653" lon="5.40094">
        <ele>851.4</ele>
        <time>2022-06-02T14:03:57Z</time>
      </trkpt>
      <trkpt lat="44.12654" lon="5.40096">
        <ele>851.1</ele>
        <time>2022-06-02T14:04:15Z</time>
      </trkpt>
      <trkpt lat="44.12658" lon="5.40102">
        <ele>850.4</ele>
        <time>2022-06-02T14:04:30Z</time>
      </trkpt>
      <trkpt lat="44.12659" lon="5.40104">
        <ele>850.1</ele>
        <time>2022-06-02T14:04:54Z</time>
      </trkpt>
      <trkpt lat="44.12659" lon="5.40106">
        <ele>849.6</ele>
        <time>2022-06-02T14:05:29Z</time>
      </trkpt>
      <trkpt lat="44.12662" lon="5.40111">
        <ele>849</ele>
        <time>2022-06-02T14:05:46Z</time>
      </trkpt>
      <trkpt lat="44.12673" lon="5.40125">
        <ele>847.5</ele>
        <time>2022-06-02T14:06:04Z</time>
      </trkpt>
      <trkpt lat="44.12689" lon="5.40146">
        <ele>844</ele>
        <time>2022-06-02T14:06:26Z</time>
      </trkpt>
      <trkpt lat="44.12703" lon="5.4016">
        <ele>841.8</ele>
        <time>2022-06-02T14:06:43Z</time>
      </trkpt>
      <trkpt lat="44.12719" lon="5.40174">
        <ele>839.5</ele>
        <time>2022-06-02T14:07:01Z</time>
      </trkpt>
      <trkpt lat="44.12729" lon="5.40185">
        <ele>837.4</ele>
        <time>2022-06-02T14:07:14Z</time>
      </trkpt>
      <trkpt lat="44.12741" lon="5.40197">
        <ele>834.8</ele>
        <time>2022-06-02T14:07:27Z</time>
      </trkpt>
      <trkpt lat="44.12752" lon="5.40201">
        <ele>834.8</ele>
        <time>2022-06-02T14:07:39Z</time>
      </trkpt>
      <trkpt lat="44.12754" lon="5.40203">
        <ele>834.5</ele>
        <time>2022-06-02T14:07:41Z</time>
      </trkpt>
      <trkpt lat="44.12767" lon="5.40211">
        <ele>833.5</ele>
        <time>2022-06-02T14:07:54Z</time>
      </trkpt>
      <trkpt lat="44.12775" lon="5.40223">
        <ele>830.8</ele>
        <time>2022-06-02T14:08:07Z</time>
      </trkpt>
      <trkpt lat="44.12775" lon="5.40224">
        <ele>830.8</ele>
        <time>2022-06-02T14:08:08Z</time>
      </trkpt>
      <trkpt lat="44.12772" lon="5.40239">
        <ele>829.3</ele>
        <time>2022-06-02T14:08:18Z</time>
      </trkpt>
      <trkpt lat="44.12763" lon="5.40262">
        <ele>826.1</ele>
        <time>2022-06-02T14:08:37Z</time>
      </trkpt>
      <trkpt lat="44.12756" lon="5.40281">
        <ele>823.3</ele>
        <time>2022-06-02T14:08:55Z</time>
      </trkpt>
      <trkpt lat="44.12754" lon="5.40284">
        <ele>822.9</ele>
        <time>2022-06-02T14:09:13Z</time>
      </trkpt>
      <trkpt lat="44.12757" lon="5.40289">
        <ele>822.6</ele>
        <time>2022-06-02T14:10:04Z</time>
      </trkpt>
      <trkpt lat="44.12758" lon="5.40292">
        <ele>822.4</ele>
        <time>2022-06-02T14:10:07Z</time>
      </trkpt>
      <trkpt lat="44.12764" lon="5.4031">
        <ele>820.4</ele>
        <time>2022-06-02T14:10:24Z</time>
      </trkpt>
      <trkpt lat="44.12768" lon="5.40323">
        <ele>818.7</ele>
        <time>2022-06-02T14:10:35Z</time>
      </trkpt>
      <trkpt lat="44.12771" lon="5.40334">
        <ele>817.1</ele>
        <time>2022-06-02T14:10:43Z</time>
      </trkpt>
      <trkpt lat="44.12785" lon="5.40355">
        <ele>813.9</ele>
        <time>2022-06-02T14:11:01Z</time>
      </trkpt>
      <trkpt lat="44.12786" lon="5.40355">
        <ele>813.9</ele>
        <time>2022-06-02T14:11:02Z</time>
      </trkpt>
      <trkpt lat="44.12793" lon="5.40372">
        <ele>812</ele>
        <time>2022-06-02T14:11:17Z</time>
      </trkpt>
      <trkpt lat="44.12803" lon="5.40392">
        <ele>810.5</ele>
        <time>2022-06-02T14:11:35Z</time>
      </trkpt>
      <trkpt lat="44.12815" lon="5.40412">
        <ele>807.3</ele>
        <time>2022-06-02T14:11:54Z</time>
      </trkpt>
      <trkpt lat="44.12819" lon="5.40423">
        <ele>805.9</ele>
        <time>2022-06-02T14:12:05Z</time>
      </trkpt>
      <trkpt lat="44.12823" lon="5.40435">
        <ele>804.6</ele>
        <time>2022-06-02T14:12:15Z</time>
      </trkpt>
      <trkpt lat="44.12829" lon="5.40448">
        <ele>802.9</ele>
        <time>2022-06-02T14:12:28Z</time>
      </trkpt>
      <trkpt lat="44.12839" lon="5.40462">
        <ele>800.6</ele>
        <time>2022-06-02T14:12:42Z</time>
      </trkpt>
      <trkpt lat="44.12844" lon="5.40476">
        <ele>798.8</ele>
        <time>2022-06-02T14:12:54Z</time>
      </trkpt>
      <trkpt lat="44.12846" lon="5.40478">
        <ele>798.5</ele>
        <time>2022-06-02T14:13:08Z</time>
      </trkpt>
      <trkpt lat="44.12852" lon="5.40485">
        <ele>797.3</ele>
        <time>2022-06-02T14:13:21Z</time>
      </trkpt>
      <trkpt lat="44.12862" lon="5.40497">
        <ele>795.3</ele>
        <time>2022-06-02T14:13:38Z</time>
      </trkpt>
      <trkpt lat="44.12865" lon="5.405">
        <ele>794.7</ele>
        <time>2022-06-02T14:13:52Z</time>
      </trkpt>
      <trkpt lat="44.12869" lon="5.40506">
        <ele>793.8</ele>
        <time>2022-06-02T14:14:00Z</time>
      </trkpt>
      <trkpt lat="44.12876" lon="5.40517">
        <ele>792.4</ele>
        <time>2022-06-02T14:14:13Z</time>
      </trkpt>
      <trkpt lat="44.12881" lon="5.40526">
        <ele>791.4</ele>
        <time>2022-06-02T14:14:28Z</time>
      </trkpt>
      <trkpt lat="44.12883" lon="5.40527">
        <ele>791.3</ele>
        <time>2022-06-02T14:14:39Z</time>
      </trkpt>
      <trkpt lat="44.12883" lon="5.40536">
        <ele>790.4</ele>
        <time>2022-06-02T14:14:52Z</time>
      </trkpt>
      <trkpt lat="44.12888" lon="5.40541">
        <ele>789.6</ele>
        <time>2022-06-02T14:15:07Z</time>
      </trkpt>
      <trkpt lat="44.12891" lon="5.40549">
        <ele>788.6</ele>
        <time>2022-06-02T14:15:22Z</time>
      </trkpt>
      <trkpt lat="44.12899" lon="5.40558">
        <ele>787</ele>
        <time>2022-06-02T14:15:38Z</time>
      </trkpt>
      <trkpt lat="44.129" lon="5.40559">
        <ele>786.8</ele>
        <time>2022-06-02T14:15:40Z</time>
      </trkpt>
      <trkpt lat="44.12907" lon="5.40568">
        <ele>785.4</ele>
        <time>2022-06-02T14:15:52Z</time>
      </trkpt>
      <trkpt lat="44.12912" lon="5.40578">
        <ele>783.9</ele>
        <time>2022-06-02T14:16:09Z</time>
      </trkpt>
      <trkpt lat="44.12913" lon="5.4058">
        <ele>783.6</ele>
        <time>2022-06-02T14:16:11Z</time>
      </trkpt>
      <trkpt lat="44.12925" lon="5.40601">
        <ele>781</ele>
        <time>2022-06-02T14:16:31Z</time>
      </trkpt>
      <trkpt lat="44.12932" lon="5.40617">
        <ele>779.7</ele>
        <time>2022-06-02T14:16:46Z</time>
      </trkpt>
      <trkpt lat="44.12939" lon="5.40627">
        <ele>779.7</ele>
        <time>2022-06-02T14:16:59Z</time>
      </trkpt>
      <trkpt lat="44.12941" lon="5.40637">
        <ele>779.7</ele>
        <time>2022-06-02T14:17:11Z</time>
      </trkpt>
      <trkpt lat="44.12941" lon="5.40651">
        <ele>779.6</ele>
        <time>2022-06-02T14:17:27Z</time>
      </trkpt>
      <trkpt lat="44.12937" lon="5.40671">
        <ele>779</ele>
        <time>2022-06-02T14:17:44Z</time>
      </trkpt>
      <trkpt lat="44.12937" lon="5.40673">
        <ele>779.1</ele>
        <time>2022-06-02T14:17:46Z</time>
      </trkpt>
      <trkpt lat="44.12933" lon="5.40697">
        <ele>779.1</ele>
        <time>2022-06-02T14:18:03Z</time>
      </trkpt>
      <trkpt lat="44.12927" lon="5.40726">
        <ele>779.5</ele>
        <time>2022-06-02T14:18:22Z</time>
      </trkpt>
      <trkpt lat="44.12924" lon="5.40758">
        <ele>780.6</ele>
        <time>2022-06-02T14:18:43Z</time>
      </trkpt>
      <trkpt lat="44.12926" lon="5.40778">
        <ele>781.7</ele>
        <time>2022-06-02T14:18:58Z</time>
      </trkpt>
      <trkpt lat="44.12929" lon="5.40799">
        <ele>781.9</ele>
        <time>2022-06-02T14:19:13Z</time>
      </trkpt>
      <trkpt lat="44.12934" lon="5.4082">
        <ele>782</ele>
        <time>2022-06-02T14:19:27Z</time>
      </trkpt>
      <trkpt lat="44.12944" lon="5.40845">
        <ele>782.1</ele>
        <time>2022-06-02T14:19:47Z</time>
      </trkpt>
      <trkpt lat="44.12954" lon="5.40867">
        <ele>781.6</ele>
        <time>2022-06-02T14:20:05Z</time>
      </trkpt>
      <trkpt lat="44.12963" lon="5.40886">
        <ele>781.2</ele>
        <time>2022-06-02T14:20:21Z</time>
      </trkpt>
      <trkpt lat="44.12968" lon="5.40895">
        <ele>781.1</ele>
        <time>2022-06-02T14:20:35Z</time>
      </trkpt>
      <trkpt lat="44.1297" lon="5.40899">
        <ele>781</ele>
        <time>2022-06-02T14:20:39Z</time>
      </trkpt>
      <trkpt lat="44.12971" lon="5.40901">
        <ele>781</ele>
        <time>2022-06-02T14:20:41Z</time>
      </trkpt>
      <trkpt lat="44.12979" lon="5.40917">
        <ele>780.7</ele>
        <time>2022-06-02T14:20:53Z</time>
      </trkpt>
      <trkpt lat="44.12984" lon="5.40925">
        <ele>780.7</ele>
        <time>2022-06-02T14:21:01Z</time>
      </trkpt>
      <trkpt lat="44.12997" lon="5.40952">
        <ele>780.1</ele>
        <time>2022-06-02T14:21:22Z</time>
      </trkpt>
      <trkpt lat="44.13009" lon="5.40978">
        <ele>779.2</ele>
        <time>2022-06-02T14:21:42Z</time>
      </trkpt>
      <trkpt lat="44.13018" lon="5.40998">
        <ele>778.4</ele>
        <time>2022-06-02T14:22:00Z</time>
      </trkpt>
      <trkpt lat="44.1302" lon="5.41004">
        <ele>778.2</ele>
        <time>2022-06-02T14:22:15Z</time>
      </trkpt>
      <trkpt lat="44.13021" lon="5.41006">
        <ele>778.1</ele>
        <time>2022-06-02T14:22:39Z</time>
      </trkpt>
      <trkpt lat="44.13021" lon="5.41008">
        <ele>777.9</ele>
        <time>2022-06-02T14:23:44Z</time>
      </trkpt>
      <trkpt lat="44.13024" lon="5.41016">
        <ele>777.6</ele>
        <time>2022-06-02T14:24:23Z</time>
      </trkpt>
      <trkpt lat="44.13026" lon="5.41021">
        <ele>777.4</ele>
        <time>2022-06-02T14:24:28Z</time>
      </trkpt>
      <trkpt lat="44.13032" lon="5.41042">
        <ele>776.2</ele>
        <time>2022-06-02T14:24:43Z</time>
      </trkpt>
      <trkpt lat="44.13038" lon="5.4106">
        <ele>775.5</ele>
        <time>2022-06-02T14:24:57Z</time>
      </trkpt>
      <trkpt lat="44.13044" lon="5.41078">
        <ele>774.9</ele>
        <time>2022-06-02T14:25:12Z</time>
      </trkpt>
      <trkpt lat="44.1305" lon="5.411">
        <ele>773.6</ele>
        <time>2022-06-02T14:25:27Z</time>
      </trkpt>
      <trkpt lat="44.13055" lon="5.41118">
        <ele>772.5</ele>
        <time>2022-06-02T14:25:42Z</time>
      </trkpt>
      <trkpt lat="44.13058" lon="5.41143">
        <ele>770.7</ele>
        <time>2022-06-02T14:25:59Z</time>
      </trkpt>
      <trkpt lat="44.13061" lon="5.41167">
        <ele>769.2</ele>
        <time>2022-06-02T14:26:16Z</time>
      </trkpt>
      <trkpt lat="44.13062" lon="5.41188">
        <ele>768.1</ele>
        <time>2022-06-02T14:26:33Z</time>
      </trkpt>
      <trkpt lat="44.13064" lon="5.41202">
        <ele>767.4</ele>
        <time>2022-06-02T14:26:47Z</time>
      </trkpt>
      <trkpt lat="44.13068" lon="5.41218">
        <ele>766.7</ele>
        <time>2022-06-02T14:27:05Z</time>
      </trkpt>
      <trkpt lat="44.13063" lon="5.41222">
        <ele>766.7</ele>
        <time>2022-06-02T14:27:13Z</time>
      </trkpt>
      <trkpt lat="44.13056" lon="5.41221">
        <ele>767</ele>
        <time>2022-06-02T14:27:21Z</time>
      </trkpt>
      <trkpt lat="44.13046" lon="5.41221">
        <ele>766.7</ele>
        <time>2022-06-02T14:27:35Z</time>
      </trkpt>
      <trkpt lat="44.13039" lon="5.41227">
        <ele>766.5</ele>
        <time>2022-06-02T14:27:49Z</time>
      </trkpt>
      <trkpt lat="44.13033" lon="5.41232">
        <ele>766.3</ele>
        <time>2022-06-02T14:28:00Z</time>
      </trkpt>
      <trkpt lat="44.13034" lon="5.41231">
        <ele>766.3</ele>
        <time>2022-06-02T14:28:28Z</time>
      </trkpt>
    </trkseg>
  </trk>
</gpx>